Live≪ Triathlon du Chemin des Dames 2016 ≫

Le 22/05/2016 Attention événement 2015 !!! Calendrier 2017



Suivez en direct le live de "Triathlon du Chemin des Dames 2016", Sun 22 May 2016

tri

J1J2MM RelaisSS Relais

J1
Scratch Nom Prénom Club Temps Cat. Clt. Cat. Nat. #1 Vélo #2 CaP ... Course
0001 1319 LAGARDE Antonin REIMS TRIATHLON 00:12:47 PU M 1 00:03:52 00:00:41 00:04:46 00:00:30 00:03:00 J1
0002 1339 BLAISE Arthur 00:13:13 PU M 2 00:03:27 00:00:41 00:05:57 00:00:24 00:02:46 J1
0003 1316 LAVIN Mathis ASTRE CREILLOIS 00:13:19 PU M 3 00:04:08 00:00:42 00:04:33 00:00:32 00:03:25 J1
0004 1324 DEVALLEE Matheo SHARKS TRIATHLON 00:13:38 PU M 4 00:04:14 00:00:51 00:04:55 00:00:26 00:03:14 J1
0005 1323 VOOGD Théo SHARKS TRIATHLON 00:14:26 PU M 5 00:04:46 00:01:11 00:04:15 00:00:32 00:03:44 J1
0006 1325 DEBARGE Valentin TEAM NOYON TRIATHLON 00:15:04 PO M 1 00:05:15 00:01:04 00:04:26 00:00:30 00:03:50 J1
0007 1304 MORTIER Lucie SHARKS TRIATHLON 00:15:06 PU F 1 00:04:13 00:00:50 00:05:40 00:00:28 00:03:56 J1
0008 1328 DEMANGE Roméo 00:15:15 PU M 6 00:04:23 00:00:53 00:05:28 00:00:40 00:03:53 J1
0009 1326 FICHOUX Killian TRIATHLON CLUB TORCY 00:15:16 PU M 7 00:05:11 00:01:22 00:04:21 00:00:33 00:03:51 J1
0010 1308 TERNOIR--CORTINHAL Léa TRIATHLON CLUB TORCY 00:15:38 PO F 1 00:04:42 00:01:00 00:05:27 00:00:27 00:04:04 J1
0011 1320 BODENAN Marius REIMS TRIATHLON 00:15:52 PU M 8 00:05:08 00:01:51 00:04:34 00:00:45 00:03:36 J1
0012 1327 EGRET GUEGUIN Edwyn US HAM TRIATHLON 00:15:52 PU M 9 00:05:09 00:01:15 00:05:12 00:00:39 00:03:39 J1
0013 1321 CUENOT Gabriel REIMS TRIATHLON 00:15:58 PU M 10 00:05:21 00:01:20 00:05:01 00:00:31 00:03:47 J1
0014 1318 THEILLIER Gaspard REIMS TRIATHLON 00:16:04 PO M 2 00:05:20 00:01:16 00:04:50 00:00:36 00:04:04 J1
0015 1305 LEFEBVRE Lisa SHARKS TRIATHLON 00:16:06 PU F 2 00:04:45 00:01:13 00:05:23 00:00:35 00:04:10 J1
0016 1303 DENIS Manon REIMS TRIATHLON 00:16:08 PU F 3 00:04:55 00:01:10 00:05:16 00:00:36 00:04:14 J1
0017 1331 SALENGRO Raphael 00:16:13 PU M 11 00:04:21 00:03:29 00:04:26 00:00:36 00:03:23 J1
0018 1335 MALHERBE Paul 00:16:15 PU M 12 00:06:00 00:01:19 00:04:57 00:00:39 00:03:22 J1
0019 1336 TERLET Tom 00:16:25 PU M 13 00:05:02 00:02:49 00:04:23 00:00:35 00:03:38 J1
0020 1302 LUDWICZAK Ambre CAMBRAI TRIATHLON 00:16:27 PO F 2 00:04:58 00:01:11 00:05:34 00:01:00 00:03:46 J1
0021 1322 MORTIER Noa SHARKS TRIATHLON 00:16:32 PO M 3 00:05:39 00:01:37 00:05:03 00:00:44 00:03:31 J1
0022 1332 DELACROIX Lucas 00:16:39 PU M 14 00:05:26 00:01:58 00:04:50 00:00:45 00:03:41 J1
0023 1313 COLOMBE Baptiste 00:16:39 PO M 4 00:06:07 00:01:24 00:04:47 00:00:35 00:03:49 J1
0024 1307 DEPRET Isaline SHARKS TRIATHLON 00:16:43 PO F 3 00:05:13 00:01:15 00:05:21 00:00:33 00:04:23 J1
0025 1301 MINGAM Roxane BEAUVAIS TRIATHLON 00:16:58 PO F 4 00:05:22 00:01:00 00:05:24 00:00:35 00:04:38 J1
0026 1334 LOCHEY Baptiste 00:17:20 PU M 15 00:05:52 00:02:30 00:04:27 00:00:31 00:04:03 J1
0027 1333 DELACROIX Romain 00:18:56 PU M 16 00:05:39 00:02:28 00:06:21 00:00:41 00:03:49 J1
0028 1306 BAILLY Pauline SHARKS TRIATHLON 00:19:10 PO F 5 00:05:53 00:01:34 00:06:52 00:00:28 00:04:25 J1
0029 1338 SECONDI Antoine 00:19:36 PO M 5 00:05:59 00:02:37 00:06:03 00:00:46 00:04:13 J1
0030 1314 MASQUELI Clément 00:20:53 PO M 6 00:07:50 00:01:48 00:05:33 00:00:51 00:04:53 J1
0031 1312 CHABLE Lison 00:24:45 PO F 6 00:07:29 00:04:31 00:07:22 00:00:33 00:04:51 J1
DNS 1309 SERRE Lina TRIATHLON CLUB TORCY 00:00:00 PU F 0 00:00:00 00:00:00 00:00:00 00:00:00 00:00:00 J1
DNS 1310 REMAN Manon 00:00:00 PO F 0 00:00:00 00:00:00 00:00:00 00:00:00 00:00:00 J1
DNS 1311 PAGNON Clara 00:00:00 PU F 0 00:00:00 00:00:00 00:00:00 00:00:00 00:00:00 J1
DNS 1317 HUBAUT Adam CLUB DES NAGEURS DE PARIS 00:00:00 PO M 0 00:00:00 00:00:00 00:00:00 00:00:00 00:00:00 J1
DNS 1329 REMAN Paul 00:00:00 PU M 0 00:00:00 00:00:00 00:00:00 00:00:00 00:00:00 J1
DNS 1330 GUILLOCHAIN Pol 00:00:00 PU M 0 00:00:00 00:00:00 00:00:00 00:00:00 00:00:00 J1
DNS 1337 DELVALLE Rémi 00:00:00 PU M 0 00:00:00 00:00:00 00:00:00 00:00:00 00:00:00 J1


J2
Scratch Nom Prénom Club Temps Cat. Clt. Cat. Nat. #1 Vélo #2 CaP ... Course
0001 1369 LUDWICZAK Pierre CAMBRAI TRIATHLON 00:19:59 MI M 1 00:04:29 00:00:40 00:07:28 00:00:35 00:06:50 J2
0002 1372 LEMERLE Jean COMPIEGNE TRIATHLON 00:21:02 MI M 2 00:04:36 00:00:53 00:07:13 00:00:27 00:07:55 J2
0003 1365 MINGAM Victor BEAUVAIS TRIATHLON 00:21:15 BE M 1 00:04:54 00:00:46 00:07:56 00:00:48 00:06:54 J2
0004 1366 HERBET Maxime BEAUVAIS TRIATHLON 00:21:22 MI M 3 00:05:16 00:00:42 00:07:40 00:00:25 00:07:21 J2
0005 1373 PEREIRA Alexis COMPIEGNE TRIATHLON 00:21:37 MI M 4 00:04:52 00:01:00 00:08:02 00:00:32 00:07:13 J2
0006 1374 MALTHERE Adrien COMPIEGNE TRIATHLON 00:21:46 MI M 5 00:05:40 00:01:20 00:07:16 00:00:37 00:06:54 J2
0007 1357 ROGIER Lily REIMS TRIATHLON 00:22:26 MI F 1 00:05:11 00:00:50 00:08:28 00:00:23 00:07:35 J2
0008 1387 ROZIER Mathieu US HAM TRIATHLON 00:22:27 MI M 6 00:05:18 00:01:06 00:07:57 00:00:24 00:07:44 J2
0009 1390 VOILLIOT Thibault 00:22:47 BE M 2 00:06:05 00:00:53 00:08:09 00:00:26 00:07:17 J2
0010 1375 MOREL Antoine COMPIEGNE TRIATHLON 00:23:02 MI M 7 00:05:42 00:01:21 00:07:49 00:00:28 00:07:45 J2
0011 1352 LUDWICZAK Rose CAMBRAI TRIATHLON 00:23:11 BE F 1 00:05:14 00:00:50 00:08:44 00:00:31 00:07:55 J2
0012 1354 REPPEL Angele REIMS TRIATHLON 00:23:24 MI F 2 00:05:25 00:00:44 00:08:36 00:00:25 00:08:16 J2
0013 1379 THEILLIER Augustin REIMS TRIATHLON 00:24:27 BE M 3 00:06:25 00:00:56 00:09:06 00:00:33 00:07:29 J2
0014 1382 DENIS Thomas REIMS TRIATHLON 00:24:29 BE M 4 00:05:38 00:00:48 00:09:00 00:00:34 00:08:32 J2
0015 1389 SALENGRO Martin 00:25:12 BE M 5 00:06:23 00:01:14 00:09:36 00:00:35 00:07:27 J2
0016 1380 TODEK Louis REIMS TRIATHLON 00:26:20 BE M 6 00:06:18 00:00:56 00:09:08 00:00:27 00:09:32 J2
0017 1353 HUBAUT Ines CLUB DES NAGEURS DE PARIS 00:26:52 MI F 3 00:05:35 00:01:02 00:09:50 00:00:28 00:09:59 J2
0018 1384 LEFEBVRE Tom SHARKS TRIATHLON 00:27:06 BE M 7 00:06:36 00:01:03 00:10:22 00:00:31 00:08:35 J2
0019 1359 ROZIER Juliette US HAM TRIATHLON 00:27:27 MI F 4 00:05:47 00:01:20 00:09:26 00:00:36 00:10:20 J2
0020 1378 DOURLENS Alexis RCN 00:28:08 MI M 8 00:06:26 00:01:48 00:09:51 00:00:33 00:09:31 J2
0021 1377 STEPHAN Matteo KRONOS TRIATHLON 00:28:23 MI M 9 00:07:14 00:01:47 00:09:45 00:00:41 00:08:58 J2
0022 1351 MULLER Caroline ASTRE CREILLOIS 00:28:50 BE F 2 00:07:07 00:01:05 00:10:37 00:00:39 00:09:24 J2
0023 1360 LECOUFFE Pauline US HAM TRIATHLON 00:30:04 MI F 5 00:05:52 00:01:30 00:10:23 00:00:47 00:11:33 J2
0024 1358 VOOGD Lisa SHARKS TRIATHLON 00:30:09 MI F 6 00:07:24 00:01:43 00:11:06 00:00:38 00:09:21 J2
0025 1381 VRIET Hugo REIMS TRIATHLON 00:30:31 BE M 8 00:07:40 00:01:42 00:10:46 00:00:40 00:09:45 J2
0026 1385 RYDE Lucas SHARKS TRIATHLON 00:31:37 BE M 9 00:07:39 00:01:03 00:11:26 00:00:34 00:10:57 J2
0027 1356 GUILLEMIN Emma REIMS TRIATHLON 00:32:50 BE F 3 00:07:42 00:01:45 00:12:33 00:00:35 00:10:18 J2
0028 1355 RIVOALLON Maëlle REIMS TRIATHLON 00:34:46 BE F 4 00:06:42 00:02:26 00:12:51 00:00:52 00:11:58 J2
0029 1368 GERME Nicolas BEAUVAIS TRIATHLON 00:37:44 BE M 10 00:08:44 00:02:52 00:13:58 00:00:49 00:11:24 J2
DNS 1367 PIECHOTA Armand BEAUVAIS TRIATHLON 00:00:00 MI M 0 00:00:00 00:00:00 00:00:00 00:00:00 00:00:00 J2
DNS 1370 QUÉRÉ Rémi Club Sportif Natation Noisy le Grand 00:00:00 BE M 0 00:00:00 00:00:00 00:00:00 00:00:00 00:00:00 J2
DNS 1371 SCHWALLER Mathis COMPIEGNE TRIATHLON 00:00:00 BE M 0 00:00:00 00:00:00 00:00:00 00:00:00 00:00:00 J2
DNS 1376 KORPAL Augustin CONCORDE CLUB TRIATHLON ST SAULVE 00:00:00 MI M 0 00:00:00 00:00:00 00:00:00 00:00:00 00:00:00 J2
DNS 1383 BERQUET Arthur REIMS TRIATHLON 00:00:00 MI M 0 00:00:00 00:00:00 00:00:00 00:00:00 00:00:00 J2
DNS 1386 ROUSSEY Mathéo TGTRI 10 00:00:00 BE M 0 00:00:00 00:00:00 00:00:00 00:00:00 00:00:00 J2
DNS 1388 ROYER Jules 00:00:00 MI M 0 00:00:00 00:00:00 00:00:00 00:00:00 00:00:00 J2


M
Scratch Nom Prénom Club Temps Cat. Clt. Cat. Nat. #1 Vélo #2 CaP ... Course
0001 250 LEGOUT Pierre TEAM TRIATHLON BAIE DE SOMME 02:00:47 SE M 1 00:19:52 00:00:35 01:04:31 00:00:29 00:35:22 M
0002 149 BERTHOU David KRONOS TRIATHLON 02:02:15 SE M 2 00:22:38 00:00:46 01:03:31 00:00:37 00:34:45 M
0003 333 CHAMBON Boris VERSAILLES TRIATHLON 02:03:35 SE M 3 00:22:11 00:00:42 01:04:48 00:00:37 00:35:18 M
0004 243 MARTIN Franck TEAM ARGON 18 France 02:05:36 SE M 4 00:20:58 00:00:45 01:07:14 00:00:42 00:35:59 M
0005 263 PINNA Eric TOS TRIATHLON 02:07:30 VE M 1 00:24:16 00:00:42 01:06:55 00:00:39 00:35:00 M
0006 188 CARPELS Brice MEUDON TRIATHLON 02:07:59 SE M 5 00:22:11 00:00:44 01:08:14 00:00:32 00:36:20 M
0007 266 LECOMTE Cédric TOS TRIATHLON 02:08:34 VE M 2 00:20:58 00:00:42 01:08:21 00:00:32 00:38:03 M
0008 129 CROS Fabien E.C. SARTROUVILLE TRIATHLON 02:09:37 VE M 3 00:24:04 00:00:52 01:06:59 00:00:33 00:37:11 M
0009 277 MACQ Guillaume TRIATHLON CLUB DE L'OMOIS 02:10:46 SE M 6 00:26:20 00:00:56 01:05:17 00:00:48 00:37:28 M
0010 151 DÉSAUTELS Christophe KRONOS TRIATHLON 02:10:56 SE M 7 00:25:24 00:00:48 01:08:19 00:01:09 00:35:18 M
0011 264 SIMON François TOS TRIATHLON 02:11:09 VE M 4 00:24:12 00:00:43 01:06:18 00:00:34 00:39:24 M
0012 221 MICHE Sylvain REIMS TRIATHLON 02:11:15 SE M 8 00:25:07 00:01:18 01:07:51 00:00:31 00:36:31 M
0013 192 PROUX Benjamin MEUDON TRIATHLON 02:12:00 SE M 9 00:24:14 00:00:57 01:09:25 00:00:52 00:36:33 M
0014 100 HAMARD Fabiens CLUB DES NAGEURS DE PARIS 02:12:36 SE M 10 00:25:13 00:00:54 01:11:45 00:00:30 00:34:17 M
0015 288 VERRIER Stephane TRIATHLON CLUB TORCY 02:13:55 VE M 5 00:23:13 00:00:37 01:10:49 00:00:42 00:38:36 M
0016 216 BOURLY Fabien REIMS TRIATHLON 02:14:44 SE M 11 00:28:23 00:01:20 01:06:48 00:00:53 00:37:21 M
0017 150 LECLERE Clement KRONOS TRIATHLON 02:14:48 SE M 12 00:28:23 00:00:59 01:07:20 00:00:44 00:37:24 M
0018 214 DÉMAZURE Arnaud REIMS METROPOLE TRIATHLON 02:16:20 VE M 6 00:26:30 00:00:56 01:09:52 00:00:39 00:38:25 M
0019 265 VOILLIOT Pierre TOS TRIATHLON 02:16:26 VE M 7 00:33:25 00:01:10 01:06:21 00:00:51 00:34:42 M
0020 168 CUVELIER Arnaud LILLE TRIATHLON 02:16:32 SE M 13 00:26:18 00:01:29 01:13:20 00:00:37 00:34:51 M
0021 212 ANDRES Quentin RATHELOT GARDE REPUBLICAINE 02:16:46 SE M 14 00:26:36 00:01:03 01:13:13 00:01:01 00:34:55 M
0022 50 NOEL Serge AQUACYCLOPEDUS PROVINS TRIATHLON 02:16:51 VE M 8 00:28:27 00:01:13 01:07:24 00:00:43 00:39:06 M
0023 191 BENEZIT Vincent MEUDON TRIATHLON 02:16:56 SE M 15 00:26:07 00:01:05 01:10:54 00:00:31 00:38:21 M
0024 215 CHARTOGNE Martin REIMS METROPOLE TRIATHLON 02:17:12 SE M 16 00:32:23 00:01:50 01:05:04 00:00:57 00:37:00 M
0025 141 VELLY Sébastien FC LAON NATATION 02:17:34 SE M 17 00:22:29 00:00:50 01:13:20 00:00:56 00:40:01 M
0026 260 BERTON Cyril TOS TRIATHLON 02:17:44 SE M 18 00:26:21 00:01:00 01:10:48 00:00:41 00:38:56 M
0027 63 BOURLET Mathieu BEAUVAIS TRIATHLON 02:17:49 SE M 19 00:25:59 00:00:55 01:10:56 00:00:48 00:39:12 M
0028 316 VOLPOET Gregoire TWFL 02:18:21 SE M 20 00:26:55 00:01:25 01:10:32 00:01:01 00:38:30 M
0029 261 CARTON Emmanuel TOS TRIATHLON 02:18:33 VE M 9 00:29:13 00:00:51 01:09:30 00:00:32 00:38:28 M
0030 238 HOCQUET Patrice SHARKS TRIATHLON 02:18:52 VE M 10 00:32:01 00:01:13 01:07:46 00:00:36 00:37:18 M
0031 180 DURAND Christophe MEUDON TRIATHLON 02:19:33 SE M 21 00:23:35 00:01:21 01:15:09 00:00:52 00:38:38 M
0032 279 MACQ Victor TRIATHLON CLUB DE L'OMOIS 02:19:45 JU M 1 00:25:42 00:01:21 01:07:29 00:00:40 00:44:35 M
0033 240 VOOGD Quentin SHARKS TRIATHLON 02:19:53 SE M 22 00:27:03 00:01:06 01:11:29 00:00:44 00:39:33 M
0034 232 LEFÈVRE Maxime SEZANNE TRIATHLON 02:19:55 SE M 23 00:32:03 00:01:07 01:09:18 00:00:45 00:36:44 M
0035 173 MARTIN Geoffroy MEUDON TRIATHLON 02:19:56 SE M 24 00:25:12 00:00:43 01:14:27 00:00:30 00:39:06 M
0036 337 SAUGRAIN Cyril WASQUEHAL TRIATHLON 02:20:03 VE M 11 00:30:20 00:01:41 01:06:53 00:00:45 00:40:26 M
0037 206 LANCIEN Olivier PASTEL TRIATHLON 02:20:34 SE M 25 00:30:37 00:01:54 01:07:43 00:00:32 00:39:51 M
0038 291 DEWAELE Thomas TRIATHLON CLUB TORCY 02:20:41 VE M 12 00:27:03 00:00:55 01:12:28 00:01:03 00:39:14 M
0039 329 HERBIN Sébastien VALENCIENNES TRIATHLON 02:20:54 SE M 26 00:28:01 00:00:48 01:13:00 00:00:41 00:38:26 M
0040 110 LARMOYER Vincent CLUB NAUTIQUE CANTON D'ATTICHY 02:20:59 SE M 27 00:24:11 00:00:47 01:11:34 00:00:34 00:43:56 M
0041 293 ZONA Alexis TRIATHLON CLUB TORCY 02:21:01 SE M 28 00:28:45 00:01:13 01:14:12 00:00:48 00:36:05 M
0042 152 PERTHOIS Alexis KRONOS TRIATHLON 02:21:12 SE M 29 00:25:43 00:00:43 01:13:21 00:00:28 00:40:59 M
0043 198 GESTIN Tanguy MONTFORT MERE TRIATHLON 02:21:19 SE M 30 00:32:13 00:01:17 01:10:19 00:00:41 00:36:51 M
0044 193 SZTERN Aurélien MEUDON TRIATHLON 02:21:26 VE M 13 00:32:18 00:01:59 01:07:33 00:00:48 00:38:49 M
0045 374 GALMICHE Alexandre 02:21:38 SE M 31 00:26:58 00:01:06 01:11:52 00:00:49 00:40:55 M
0046 157 REMY Ludovic KRONOS TRIATHLON 02:22:09 SE M 32 00:29:16 00:01:12 01:13:09 00:00:28 00:38:06 M
0047 195 PROVOST Pierre-Yves MEUDON TRIATHLON 02:22:15 VE M 14 00:26:46 00:01:16 01:12:09 00:00:45 00:41:21 M
0048 144 AYMARD Charles GUILHERAND GRANGES TRIATHLON 02:22:22 SE M 33 00:30:04 00:01:59 01:09:35 00:00:43 00:40:04 M
0049 315 DUMORTIER Jérôme TWFL 02:22:25 SE M 34 00:29:22 00:01:58 01:11:21 00:01:11 00:38:35 M
0050 102 ROUHAUD Yvan CLUB DES NAGEURS DE PARIS 02:22:38 SE M 35 00:28:11 00:01:15 01:15:28 00:00:37 00:37:09 M
0051 49 GARCIA Maxime AQUACYCLOPEDUS PROVINS TRIATHLON 02:22:49 SE M 36 00:27:04 00:01:33 01:11:21 00:02:38 00:40:15 M
0052 42 FAUQUEUX Laurent AMIENS TRIATHLON 02:22:56 SE M 37 00:27:17 00:01:37 01:12:12 00:00:44 00:41:09 M
0053 295 FRAPPART Fabien TRIATHLON CLUB TORCY 02:23:42 VE M 15 00:26:36 00:00:59 01:15:25 00:00:32 00:40:12 M
0054 94 COUTANT Christophe CLUB DES NAGEURS DE PARIS 02:23:59 VE M 16 00:26:16 00:01:13 01:13:04 00:01:04 00:42:24 M
0055 222 KOLB Romain REIMS TRIATHLON 02:24:22 SE M 38 00:28:22 00:01:52 01:12:16 00:00:53 00:41:01 M
0056 73 BOURLET Pierre BEAUVAIS TRIATHLON 02:24:25 SE M 39 00:29:10 00:01:24 01:14:50 00:01:01 00:38:02 M
0057 69 LEGRAND Jason BEAUVAIS TRIATHLON 02:24:32 SE M 40 00:26:37 00:01:15 01:15:39 00:00:52 00:40:11 M
0058 306 VUILLAUME Victor TRIATHLON CLUB TORCY 02:24:33 SE M 41 00:31:30 00:01:04 01:11:12 00:00:32 00:40:16 M
0059 133 JACQUES David EPERNAY TRIATHLON PAYS DE CHAMPAGNE 02:24:34 VE M 17 00:29:46 00:01:53 01:14:49 00:00:56 00:37:12 M
0060 200 DENONAIN Ludovic NOISY LE GRAND TRIATHLON 02:25:32 SE M 42 00:27:05 00:01:11 01:14:58 00:00:38 00:41:41 M
0061 57 MALIGNAT François ASTRE CREILLOIS 02:25:38 JU M 2 00:25:41 00:01:16 01:10:52 00:00:53 00:46:59 M
0062 114 DELFORT Yannick COMPIEGNE TRIATHLON 02:25:39 VE M 18 00:27:46 00:01:09 01:13:58 00:00:32 00:42:17 M
0063 55 WAGNER Gerome ASTRE CREILLOIS 02:25:42 SE M 43 00:29:19 00:01:02 01:18:48 00:00:42 00:35:53 M
0064 318 GERVOISE Dimitri US HAM TRIATHLON 02:26:01 VE M 19 00:27:43 00:01:45 01:14:16 00:00:44 00:41:36 M
0065 218 VAROQUIER Jeremy REIMS TRIATHLON 02:26:14 SE M 44 00:29:07 00:01:11 01:15:28 00:00:45 00:39:45 M
0066 134 PESSENET Cyrille EPERNAY TRIATHLON PAYS DE CHAMPAGNE 02:26:18 VE M 20 00:32:51 00:01:40 01:13:18 00:00:57 00:37:35 M
0067 201 DUPUIS Fabien NOISY LE GRAND TRIATHLON 02:26:28 SE M 45 00:31:11 00:01:10 01:15:46 00:00:42 00:37:40 M
0068 281 BATISSE Christophe TRIATHLON CLUB DE L'OMOIS 02:26:28 VE M 21 00:31:12 00:01:08 01:11:53 00:00:42 00:41:35 M
0069 137 FAYET Jean-Christophe EPERNAY TRIATHLON PAYS DE CHAMPAGNE 02:26:44 VE M 22 00:28:20 00:01:21 01:15:36 00:00:32 00:40:56 M
0070 170 DUCOURANT Olivier MELUN TRIATHLON 02:26:46 VE M 23 00:30:23 00:01:34 01:12:47 00:00:36 00:41:29 M
0071 176 ADE Grégory MEUDON TRIATHLON 02:26:49 VE M 24 00:29:00 00:02:09 01:15:50 00:00:59 00:38:52 M
0072 274 CHAUDERLOT Thomas TRIATHLON CLUB DE L'OMOIS 02:26:53 SE M 46 00:31:02 00:01:36 01:13:18 00:01:32 00:39:27 M
0073 117 SAINT-MARS Alexandre CONCORDE CLUB TRIATHLON ST SAULVE 02:26:56 SE M 47 00:28:21 00:02:20 01:15:32 00:00:57 00:39:48 M
0074 175 MURGUES Rémy MEUDON TRIATHLON 02:26:57 SE M 48 00:25:35 00:01:21 01:15:39 00:00:37 00:43:47 M
0075 190 POQUET Vincent MEUDON TRIATHLON 02:26:58 SE M 49 00:28:19 00:01:24 01:13:51 00:01:11 00:42:15 M
0076 51 LACROIX Pascal AQUACYCLOPEDUS PROVINS TRIATHLON 02:27:02 VE M 25 00:30:11 00:00:56 01:13:31 00:00:38 00:41:48 M
0077 273 BERTHEMET Jerome TRIATHLON CLUB DE L'OMOIS 02:27:17 VE M 26 00:28:19 00:00:51 01:12:52 00:00:38 00:44:40 M
0078 336 PIERRON Nicolas WASQUEHAL TRIATHLON 02:27:23 VE M 27 00:28:23 00:01:25 01:12:58 00:01:11 00:43:28 M
0079 278 DEGUSSEAU Thibault TRIATHLON CLUB DE L'OMOIS 02:27:24 SE M 50 00:30:31 00:01:35 01:12:14 00:00:46 00:42:20 M
0080 244 GERVOISE Maximilien TEAM S BIKE AMIENS 02:27:28 SE M 51 00:30:22 00:02:41 01:13:15 00:00:56 00:40:15 M
0081 255 KRUHELSKI Fabien TEAM TRIATHLON MAUBEUGE 02:27:54 SE M 52 00:35:07 00:01:27 01:11:10 00:00:51 00:39:20 M
0082 194 JOUVEN Xavier MEUDON TRIATHLON 02:27:57 VE M 28 00:29:44 00:01:43 01:13:13 00:00:40 00:42:39 M
0083 229 POURCHEZ Samuel SC ABBEVILLE TRIATHLON 02:28:13 VE M 29 00:28:27 00:01:29 01:19:05 00:00:47 00:38:27 M
0084 106 LEFEVRE Jean-Christophe CLUB DES NAGEURS DE PARIS 02:28:29 SE M 53 00:28:14 00:01:16 01:17:56 00:00:57 00:40:08 M
0085 112 CHAPON Cedric COMPIEGNE TRIATHLON 02:28:40 VE M 30 00:30:07 00:01:30 01:16:35 00:00:57 00:39:33 M
0086 79 LANGLET Guillaume CAMBRAI TRIATHLON 02:28:42 SE M 54 00:32:45 00:02:27 01:10:40 00:01:01 00:41:52 M
0087 297 ZUTTER Christopher TRIATHLON CLUB TORCY 02:28:46 JU M 3 00:24:20 00:01:07 01:15:07 00:01:01 00:47:13 M
0088 7 PERRIN Sandra CHAMPAGNE TRIATHLON 02:29:06 VE F 1 00:26:57 00:00:53 01:15:46 00:00:38 00:44:54 M
0089 81 ROCHES Romain CAMBRAI TRIATHLON 02:29:19 SE M 55 00:27:58 00:01:15 01:15:22 00:00:56 00:43:49 M
0090 385 BARDIAUX Benjamin 02:29:21 VE M 31 00:28:04 00:01:20 01:17:23 00:00:43 00:41:53 M
0091 330 DEULIN Franck VALENCIENNES TRIATHLON 02:29:28 VE M 32 00:24:30 00:01:19 01:17:19 00:00:51 00:45:31 M
0092 67 HERBET Laurent BEAUVAIS TRIATHLON 02:29:40 VE M 33 00:25:19 00:01:23 01:16:42 00:00:46 00:45:32 M
0093 181 LESUR Franck TRIATHLON CLUB TORCY 02:29:52 VE M 34 00:29:07 00:00:45 01:14:55 00:00:36 00:44:32 M
0094 25 BASTIEN Céline SHARKS TRIATHLON 02:30:07 SE F 1 00:28:15 00:01:03 01:18:50 00:00:47 00:41:13 M
0095 322 VEIGNIE Julien VALENCIENNES TRIATHLON 02:30:08 SE M 56 00:30:20 00:01:28 01:16:02 00:01:05 00:41:15 M
0096 140 RABIN Florent FC LAON NATATION 02:30:21 SE M 57 00:23:19 00:01:13 01:22:57 00:00:53 00:42:01 M
0097 256 BRIGHEL Stephane TEAM WELLNESS 02:30:41 VE M 35 00:29:19 00:01:05 01:14:18 00:01:07 00:44:54 M
0098 62 DAVID Jérémy BEAUVAIS TRIATHLON 02:30:52 SE M 58 00:33:12 00:01:32 01:14:44 00:01:12 00:40:14 M
0099 271 DUJON Judicaël TRIATHLON CLUB DE L'OMOIS 02:30:56 SE M 59 00:32:56 00:00:46 01:14:27 00:00:35 00:42:13 M
0100 124 CAVILLON Thomas CREPY TRIATHLON 02:30:59 SE M 60 00:28:34 00:01:35 01:18:06 00:00:38 00:42:08 M
0101 339 DEBEUF Jeremie WASQUEHAL TRIATHLON 02:31:02 SE M 61 00:29:54 00:01:28 01:13:42 00:01:08 00:44:52 M
0102 376 GLAIRON-MONDET Romain 02:31:06 VE M 36 00:28:25 00:01:29 01:15:41 00:01:41 00:43:52 M
0103 246 SUREAU Christel Guy TOS TRIATHLON 02:31:09 VE M 37 00:32:41 00:01:31 01:14:03 00:01:12 00:41:44 M
0104 300 THIERRY Sebastien TRIATHLON CLUB TORCY 02:31:21 VE M 38 00:29:44 00:01:10 01:16:47 00:01:27 00:42:14 M
0105 327 MOULIN Nicolas VALENCIENNES TRIATHLON 02:31:24 VE M 39 00:29:13 00:01:30 01:17:33 00:00:41 00:42:29 M
0106 275 SARAZIN Nicolas TRIATHLON CLUB DE L'OMOIS 02:31:24 SE M 62 00:28:28 00:01:02 01:18:35 00:00:48 00:42:34 M
0107 236 DEPRET Vincent SHARKS TRIATHLON 02:31:41 VE M 40 00:26:45 00:01:14 01:16:44 00:00:52 00:46:08 M
0108 64 SYS Pierre BEAUVAIS TRIATHLON 02:31:41 SE M 63 00:25:03 00:00:54 01:28:41 00:01:00 00:36:04 M
0109 284 BATAIL Emmanuel TRIATHLON CLUB TORCY 02:32:10 SE M 64 00:30:18 00:01:28 01:18:23 00:01:56 00:40:07 M
0110 74 NAUTRÉ Mickael BPC 02:32:14 SE M 65 00:32:48 00:02:00 01:12:50 00:00:46 00:43:52 M
0111 171 DUCOURANT Bruno MELUN TRIATHLON 02:32:23 VE M 41 00:33:14 00:01:01 01:12:29 00:00:36 00:45:05 M
0112 305 GUENNO Loïc TRIATHLON CLUB TORCY 02:32:49 VE M 42 00:28:49 00:01:57 01:16:40 00:01:05 00:44:21 M
0113 103 DELIE Olivier CLUB DES NAGEURS DE PARIS 02:32:55 VE M 43 00:25:08 00:01:31 01:14:24 00:00:51 00:51:04 M
0114 321 PERIN Enrico USA TRIATHLON FEDERATION 02:33:16 VE M 44 00:29:08 00:01:38 01:19:37 00:01:14 00:41:40 M
0115 326 COLIN Bruno VALENCIENNES TRIATHLON 02:33:28 VE M 45 00:29:18 00:02:25 01:15:00 00:00:51 00:45:56 M
0116 217 DRUMELLE Bruno REIMS TRIATHLON 02:33:47 VE M 46 00:26:33 00:01:26 01:19:21 00:01:07 00:45:22 M
0117 312 PATTYN Olivier TWFL 02:33:58 VE M 47 00:31:12 00:02:36 01:12:35 00:01:30 00:46:07 M
0118 317 BOURGY Florian US HAM TRIATHLON 02:34:06 SE M 66 00:32:07 00:01:37 01:13:59 00:01:21 00:45:04 M
0119 104 GOUARIN Vincent CLUB DES NAGEURS DE PARIS 02:34:06 SE M 67 00:27:50 00:01:39 01:21:36 00:00:59 00:42:05 M
0120 75 PIMPERNET Simon BPC 02:34:11 SE M 68 00:31:33 00:01:41 01:14:37 00:01:13 00:45:09 M
0121 183 JULES Thomas MEUDON TRIATHLON 02:34:25 SE M 69 00:25:17 00:01:17 01:19:35 00:01:50 00:46:28 M
0122 162 BOUHET Mathieu LA BRIE FRANCILIENNE TRIATHLON 02:34:32 SE M 70 00:25:21 00:02:03 01:17:24 00:00:49 00:48:58 M
0123 209 HACHET Xavier PASTEL TRIATHLON 02:34:39 VE M 48 00:30:29 00:01:42 01:19:30 00:00:59 00:42:01 M
0124 111 GYR Herve COMPIEGNE TRIATHLON 02:34:41 VE M 49 00:29:01 00:02:13 01:15:16 00:01:13 00:47:00 M
0125 283 ROUX Stephane TRIATHLON CLUB DE VILLEPARISIS 02:35:03 VE M 50 00:28:03 00:01:50 01:22:18 00:00:49 00:42:04 M
0126 242 RENARD Luc SHARKS TRIATHLON 02:35:46 VE M 51 00:38:25 00:02:15 01:13:18 00:01:13 00:40:37 M
0127 89 PEINE Jean-Michel CHESSY TRIATHLON VAL D'EUROPE 02:36:11 VE M 52 00:34:14 00:02:35 01:15:51 00:01:52 00:41:40 M
0128 202 CATRICE Stephane OSML NATATION TRIATHLON 02:36:14 VE M 53 00:29:07 00:01:29 01:15:50 00:01:56 00:47:54 M
0129 132 DEBRECENI Thomas EPERNAY TRIATHLON PAYS DE CHAMPAGNE 02:36:44 SE M 71 00:31:47 00:01:55 01:14:05 00:01:13 00:47:46 M
0130 272 VIGNAUD Stephane TRIATHLON CLUB DE L'OMOIS 02:37:07 VE M 54 00:33:24 00:01:03 01:15:46 00:00:46 00:46:09 M
0131 287 LIBERT Jean-Marc TRIATHLON CLUB TORCY 02:37:23 VE M 55 00:32:14 00:01:22 01:15:11 00:01:05 00:47:33 M
0132 259 BARBE Franck TOS TRIATHLON 02:37:32 VE M 56 00:34:44 00:01:11 01:20:03 00:00:40 00:40:56 M
0133 60 BAIVIER Patrick ATHLETIC CLUB MARCQUOIS 02:38:06 VE M 57 00:33:11 00:01:14 01:20:42 00:00:36 00:42:25 M
0134 231 LECLERC Jerome SC ABBEVILLE TRIATHLON 02:38:10 VE M 58 00:28:23 00:01:55 01:24:30 00:01:27 00:41:57 M
0135 61 DOUBLET Jerome BEAUMONT TRIATHLON 02:38:17 SE M 72 00:34:27 00:02:12 01:14:38 00:01:03 00:45:59 M
0136 155 LOUIS Gregory KRONOS TRIATHLON 02:38:27 SE M 73 00:31:18 00:01:17 01:20:15 00:00:55 00:44:45 M
0137 367 SOMAZZI Laurent 02:38:31 VE M 59 00:32:30 00:01:52 01:19:21 00:00:56 00:43:53 M
0138 20 VAN CAMP Nadja MEUDON TRIATHLON 02:38:34 SE F 2 00:28:39 00:01:33 01:23:06 00:00:54 00:44:24 M
0139 262 CHARAU Lionel TOS TRIATHLON 02:38:53 VE M 60 00:27:09 00:01:47 01:24:33 00:00:51 00:44:36 M
0140 299 COURBOULIN Dominique TRIATHLON CLUB TORCY 02:38:57 VE M 61 00:00:00 00:00:00 00:00:00 00:00:00 00:00:00 M
0141 78 DECAUX Bertrand CA FOURMIES 02:39:00 VE M 62 00:34:11 00:01:08 01:18:06 00:00:50 00:44:47 M
0142 241 BAILLY Jeoffrey SHARKS TRIATHLON 02:39:01 SE M 74 00:35:48 00:02:04 01:17:59 00:01:19 00:41:52 M
0143 398 MINOTTE Sébastien 02:39:02 VE M 63 00:27:14 00:01:19 01:18:50 00:01:03 00:50:39 M
0144 125 MOREL Eric CREPY TRIATHLON 02:39:05 SE M 75 00:33:41 00:01:16 01:19:16 00:00:44 00:44:10 M
0145 68 LEGRAND Gervais BEAUVAIS TRIATHLON 02:39:12 VE M 64 00:32:52 00:02:30 01:18:02 00:01:14 00:44:35 M
0146 127 BOECHAT Lionel CSAKB 02:39:17 VE M 65 00:29:41 00:01:11 01:19:36 00:01:43 00:47:08 M
0147 52 MOIGNARD Brice AQUACYCLOPEDUS PROVINS TRIATHLON 02:39:22 VE M 66 00:31:29 00:01:34 01:20:12 00:01:07 00:45:01 M
0148 105 LEPRETRE Christian-Eric CLUB DES NAGEURS DE PARIS 02:39:32 VE M 67 00:34:17 00:02:32 01:18:48 00:01:21 00:42:37 M
0149 309 TERNOIR Julien TRIATHLON CLUB TORCY 02:39:49 SE M 76 00:29:42 00:01:02 01:21:36 00:01:03 00:46:27 M
0150 164 GEORGES David LES TRITONS MELDOIS 02:39:56 SE M 77 00:32:05 00:00:54 01:26:09 00:00:48 00:40:03 M
0151 235 LIBERT Olivier SHARKS TRIATHLON 02:40:10 VE M 68 00:32:27 00:01:12 01:19:44 00:00:43 00:46:07 M
0152 196 NUTTENS Charles MONTFORT MERE TRIATHLON 02:40:13 SE M 78 00:30:06 00:02:04 01:23:21 00:00:53 00:43:52 M
0153 23 JONARD Marie RACING CLUB ARRAS TRIATHLON 02:40:16 SE F 3 00:27:38 00:01:22 01:25:42 00:00:46 00:44:50 M
0154 153 PERTHOIS Didier KRONOS TRIATHLON 02:40:22 VE M 69 00:38:08 00:02:01 01:18:20 00:01:27 00:40:28 M
0155 154 COUPEL Christophe SC ABBEVILLE TRIATHLON 02:40:26 SE M 79 00:33:34 00:01:34 01:23:40 00:01:05 00:40:34 M
0156 392 DEMEUSE Clément 02:40:40 SE M 80 00:31:44 00:02:38 01:26:10 00:01:38 00:38:32 M
0157 90 BOUF Benjamin CHESSY TRIATHLON VAL D'EUROPE 02:40:44 SE M 81 00:36:16 00:02:27 01:16:36 00:01:23 00:44:05 M
0158 397 VALLEZ Clement 02:40:47 SE M 82 00:31:43 00:02:51 01:19:31 00:01:31 00:45:13 M
0159 301 DELAGE Sébastien TRIATHLON CLUB TORCY 02:40:49 VE M 70 00:34:22 00:02:40 01:17:43 00:02:04 00:44:01 M
0160 91 MARTELLA Michel CLUB DES NAGEURS DE PARIS 02:40:53 SE M 83 00:30:14 00:01:41 01:23:33 00:00:44 00:44:43 M
0161 359 ROBLES Jeremie 02:40:55 SE M 84 00:32:08 00:01:38 01:20:31 00:01:21 00:45:19 M
0162 148 MORAND Yan KRONOS TRIATHLON 02:41:17 VE M 71 00:34:02 00:02:21 01:21:24 00:01:04 00:42:28 M
0163 294 MIGUEL Benoit TRIATHLON CLUB TORCY 02:41:24 SE M 85 00:31:37 00:01:41 01:22:53 00:00:50 00:44:24 M
0164 76 PAYEN Nicolas CA FOURMIES 02:41:41 VE M 72 00:32:41 00:01:00 01:20:16 00:00:44 00:47:02 M
0165 179 SIGUENZA Tony MEUDON TRIATHLON 02:41:47 VE M 73 00:31:49 00:01:27 01:21:47 00:01:08 00:45:38 M
0166 41 GILLERON Sophie 02:41:53 SE F 4 00:32:40 00:02:50 01:21:45 00:01:02 00:43:38 M
0167 361 QUERE Daniel 02:41:57 VE M 74 00:30:25 00:01:41 01:16:14 00:00:52 00:52:47 M
0168 303 BORREGA RIBERA Fernando TRIATHLON CLUB TORCY 02:41:58 SE M 86 00:29:40 00:02:16 01:21:20 00:01:15 00:47:28 M
0169 121 CHORON Michel CREPY TRIATHLON 02:41:59 VE M 75 00:31:28 00:01:08 01:20:44 00:00:40 00:48:00 M
0170 331 DEMARQUET Michel VALENCIENNES TRIATHLON 02:41:59 VE M 76 00:34:46 00:03:07 01:20:34 00:00:56 00:42:38 M
0171 249 QUINT Alexandre 02:42:00 VE M 77 00:31:26 00:02:37 01:22:14 00:01:23 00:44:22 M
0172 107 SUSCHETET Damien CLUB DES NAGEURS DE PARIS 02:42:03 SE M 87 00:27:54 00:02:05 01:24:10 00:01:06 00:46:50 M
0173 123 PUTTEMANS Jérémy CREPY TRIATHLON 02:42:24 SE M 88 00:29:32 00:01:09 01:22:39 00:00:40 00:48:25 M
0174 233 HARSIGNY David SEZANNE TRIATHLON 02:42:28 VE M 78 00:34:21 00:02:48 01:18:16 00:01:11 00:45:54 M
0175 219 SURMONT Guillaume REIMS TRIATHLON 02:42:49 SE M 89 00:39:43 00:01:24 01:20:05 00:00:46 00:40:53 M
0176 377 LAFONT Guillaume 02:42:50 SE M 90 00:34:35 00:02:03 01:21:31 00:00:46 00:43:58 M
0177 381 MIRAMOND Sylvain 02:43:06 VE M 79 00:34:05 00:02:16 01:19:23 00:01:51 00:45:33 M
0178 21 DEGAND Jessica PASTEL TRIATHLON 02:43:07 SE F 5 00:27:25 00:01:05 01:26:18 00:00:44 00:47:36 M
0179 393 LAURENT Pierre 02:43:10 SE M 91 00:31:54 00:02:12 01:22:38 00:01:59 00:44:29 M
0180 142 PONCHAUX André GRAVELINES TRIATHLON 02:43:14 VE M 80 00:31:31 00:01:42 01:19:52 00:01:48 00:48:24 M
0181 223 MALON Philippe REIMS TRIATHLON 02:43:18 VE M 81 00:31:34 00:02:16 01:19:22 00:01:08 00:49:00 M
0182 158 LAVERGNE Stephane LA BRIE FRANCILIENNE TRIATHLON 02:43:41 VE M 82 00:28:26 00:01:36 01:24:34 00:00:45 00:48:23 M
0183 257 MILARD Christophe TGTRI 10 02:43:46 VE M 83 00:29:48 00:00:00 00:00:00 00:00:00 00:00:00 M
0184 252 DOMINGUES Daniel TEAM TRIATHLON MAUBEUGE 02:43:54 VE M 84 00:32:54 00:02:21 01:18:53 00:01:06 00:48:42 M
0185 59 LECOU Gerard ASTRE CREILLOIS 02:44:09 VE M 85 00:34:14 00:02:06 01:20:12 00:00:49 00:46:51 M
0186 203 LOPES Christophe PASTEL TRIATHLON 02:44:19 VE M 86 00:33:48 00:02:50 01:21:56 00:01:38 00:44:09 M
0187 88 SURMONT Bruno CHESSY TRIATHLON VAL D'EUROPE 02:44:28 VE M 87 00:34:46 00:01:30 01:24:40 00:01:08 00:42:27 M
0188 253 GIBON Frederic TEAM TRIATHLON MAUBEUGE 02:44:40 VE M 88 00:32:43 00:02:18 01:25:52 00:01:45 00:42:05 M
0189 399 BOUVART Cedric 02:44:43 SE M 92 00:32:34 00:02:46 01:23:52 00:01:14 00:44:18 M
0190 160 BOUHET Laurent LA BRIE FRANCILIENNE TRIATHLON 02:44:46 VE M 89 00:29:29 00:01:51 01:24:06 00:01:12 00:48:09 M
0191 13 LE TENO Beatrice E.C. SARTROUVILLE TRIATHLON 02:44:47 VE F 2 00:30:08 00:01:01 01:27:00 00:00:35 00:46:04 M
0192 34 SAUGRAIN Sophie WASQUEHAL TRIATHLON 02:44:56 VE F 3 00:35:23 00:01:42 01:18:23 00:00:54 00:48:36 M
0193 391 FRAISE Mathieu 02:45:05 SE M 93 00:28:38 00:01:39 01:19:55 00:00:41 00:54:14 M
0194 174 DOREY Sylvain MEUDON TRIATHLON 02:45:07 SE M 94 00:28:11 00:01:40 01:27:18 00:01:18 00:46:42 M
0195 325 ZAJONZ Anthony VALENCIENNES TRIATHLON 02:45:16 SE M 95 00:31:50 00:01:43 01:27:03 00:01:16 00:43:25 M
0196 4 FAURE Laura ASTRE CREILLOIS 02:45:26 SE F 6 00:30:54 00:01:17 01:23:39 00:00:52 00:48:46 M
0197 270 LABBE Fabrice TRIATHLON CLUB DE DOUAI 02:45:33 VE M 90 00:32:22 00:03:43 01:19:44 00:01:21 00:48:24 M
0198 204 THÉRON Julien PASTEL TRIATHLON 02:45:48 SE M 96 00:29:52 00:01:40 01:23:08 00:01:24 00:49:46 M
0199 122 GRAVE Nathanael CREPY TRIATHLON 02:45:49 VE M 91 00:32:06 00:02:30 01:26:22 00:01:17 00:43:37 M
0200 289 THEVENIN Mathieu TRIATHLON CLUB TORCY 02:46:05 SE M 97 00:35:12 00:01:24 01:18:45 00:00:30 00:50:16 M
0201 138 COUROT Jean-Xavier EPERNAY TRIATHLON PAYS DE CHAMPAGNE 02:46:10 VE M 92 00:33:38 00:02:40 01:22:03 00:01:05 00:46:46 M
0202 314 HAZEBROUCK Stephane TWFL 02:46:15 SE M 98 00:33:21 00:02:10 01:23:32 00:01:48 00:45:26 M
0203 210 MARTIN Grégory RACING CLUB ARRAS TRIATHLON 02:46:20 VE M 93 00:32:46 00:02:10 01:18:38 00:00:59 00:51:49 M
0204 87 COUTARD Steve CHANTILLY TRIATHLON 02:46:29 VE M 94 00:32:37 00:01:23 01:26:58 00:01:10 00:44:22 M
0205 324 PHILIPPE Yannick VALENCIENNES TRIATHLON 02:46:34 SE M 99 00:33:33 00:02:02 01:23:27 00:01:18 00:46:16 M
0206 394 KENNEL Didier 02:46:39 VE M 95 00:29:38 00:02:38 01:23:07 00:01:19 00:49:59 M
0207 334 ETIENNEY Julien VILLEPINTE TRIATHLON 02:46:52 VE M 96 00:25:37 00:01:47 01:20:09 00:01:36 00:57:45 M
0208 208 HENOCQUE Jean PASTEL TRIATHLON 02:46:56 VE M 97 00:33:55 00:01:48 01:19:34 00:01:03 00:50:39 M
0209 17 LUVET Nathalie LA BRIE FRANCILIENNE TRIATHLON 02:46:58 VE F 4 00:30:17 00:02:31 01:27:32 00:00:57 00:45:43 M
0210 395 PECCAVET Stephane 02:47:50 VE M 98 00:32:35 00:02:24 01:25:28 00:01:21 00:46:03 M
0211 239 LEFEBVRE Sebastien SHARKS TRIATHLON 02:48:00 VE M 99 00:34:04 00:03:10 01:28:03 00:01:23 00:41:22 M
0212 247 ARNOULD Cyril TEAM SEDAN TRIATHLON 02:48:28 VE M 100 00:35:50 00:03:08 01:24:56 00:01:01 00:43:35 M
0213 357 PLISSON Roland 02:48:41 VE M 101 00:30:12 00:02:19 01:28:24 00:01:20 00:46:28 M
0214 353 DEBREMME Frédéric 02:48:42 VE M 102 00:47:18 00:03:18 01:19:07 00:01:42 00:37:17 M
0215 54 PARRA Nicolas ASTRE CREILLOIS 02:48:48 SE M 100 00:30:15 00:01:25 01:27:51 00:01:28 00:47:51 M
0216 113 HENNION Guillaume COMPIEGNE TRIATHLON 02:48:53 SE M 101 00:34:40 00:02:00 01:22:53 00:01:04 00:48:17 M
0217 280 LE ROUZIC Julien-Antoine TRIATHLON CLUB DE L'OMOIS 02:49:06 SE M 102 00:37:24 00:01:37 01:21:39 00:01:07 00:47:21 M
0218 205 GAUTHIER Arnaud PASTEL TRIATHLON 02:49:16 SE M 103 00:25:00 00:01:11 01:26:11 00:01:12 00:55:44 M
0219 24 MERLE Linda REIMS TRIATHLON 02:49:36 VE F 5 00:37:48 00:01:42 01:20:31 00:00:58 00:48:39 M
0220 379 LETOUZEY Pierre 02:49:52 SE M 104 00:31:00 00:00:00 00:00:00 00:00:00 00:51:46 M
0221 228 DURIEUX Christophe RTT4C 02:49:59 SE M 105 00:32:58 00:03:02 01:25:25 00:01:10 00:47:26 M
0222 226 VERMEULEN Jean RTT4C 02:50:00 VE M 103 00:32:56 00:03:31 01:28:14 00:01:16 00:44:05 M
0223 382 CLAUDON Christophe 02:50:11 VE M 104 00:31:40 00:02:41 01:26:12 00:01:02 00:48:39 M
0224 126 POULET Alain CREPY TRIATHLON 02:50:19 VE M 105 00:31:41 00:01:45 01:25:41 00:01:23 00:49:51 M
0225 220 DUPUIS Laurent REIMS TRIATHLON 02:50:34 VE M 106 00:33:30 00:02:36 01:24:16 00:01:19 00:48:54 M
0226 383 MONTMASSON Clément 02:50:42 SE M 106 00:34:26 00:03:19 01:25:17 00:01:03 00:46:39 M
0227 99 SIEFFERT Franck CLUB DES NAGEURS DE PARIS 02:51:54 VE M 107 00:29:58 00:01:46 01:28:57 00:01:26 00:49:49 M
0228 165 HAINSSELIN Julien LES TRITONS MELDOIS 02:51:59 SE M 107 00:33:57 00:01:12 01:25:44 00:00:46 00:50:22 M
0229 172 LEMARCHAND Johan MELUN TRIATHLON 02:52:02 VE M 108 00:38:03 00:01:59 01:24:17 00:01:16 00:46:29 M
0230 36 LEHERISSE Stephanie WASQUEHAL TRIATHLON 02:52:09 VE F 6 00:34:33 00:01:55 01:24:04 00:01:01 00:50:37 M
0231 38 CAUDRELIER Sabine 02:52:38 VE F 7 00:30:01 00:02:46 01:27:58 00:01:20 00:50:35 M
0232 47 DIDIER Jacques ANTONY NATATION SECTION TRIATHLON 02:52:48 VE M 109 00:36:05 00:01:37 01:22:54 00:01:02 00:51:13 M
0233 298 ZUTTER Jean-Marc TRIATHLON CLUB TORCY 02:53:15 VE M 110 00:32:28 00:02:03 01:22:12 00:02:20 00:54:15 M
0234 72 DE OLIVEIRA Philippe BEAUVAIS TRIATHLON 02:53:29 VE M 111 00:34:43 00:01:41 01:24:03 00:01:36 00:51:28 M
0235 368 KERVERDO Sébastien 02:53:34 VE M 112 00:30:41 00:03:14 01:30:57 00:01:58 00:46:46 M
0236 131 LECOURT Thierry EPERNAY TRIATHLON PAYS DE CHAMPAGNE 02:53:36 VE M 113 00:38:32 00:01:27 01:20:38 00:00:57 00:52:03 M
0237 366 LEVECOT Aubin 02:53:37 VE M 114 00:36:12 00:02:55 01:22:41 00:01:54 00:49:56 M
0238 46 VÉCHART Laurent AMIENS TRIATHLON 02:53:48 VE M 115 00:35:48 00:03:00 01:25:00 00:01:31 00:48:32 M
0239 98 BRES Paul-André CLUB DES NAGEURS DE PARIS 02:53:51 VE M 116 00:26:17 00:01:42 01:30:55 00:01:04 00:53:54 M
0240 323 HARDY David VALENCIENNES TRIATHLON 02:53:53 VE M 117 00:32:16 00:01:24 01:30:25 00:01:03 00:48:46 M
0241 286 LESUR Franck TRIATHLON CLUB TORCY 02:54:10 VE M 118 00:34:38 00:02:13 01:28:08 00:01:23 00:47:50 M
0242 156 ADAM Pascal KRONOS TRIATHLON 02:54:35 VE M 119 00:38:23 00:02:05 01:25:37 00:01:19 00:47:13 M
0243 85 ROLLAND Hervé CHANTILLY TRIATHLON 02:54:35 VE M 120 00:36:19 00:03:34 01:25:30 00:01:40 00:47:34 M
0244 310 TERNOIR Jacky TRIATHLON CLUB TORCY 02:55:07 VE M 121 00:33:06 00:01:38 01:25:55 00:00:57 00:53:33 M
0245 290 LHOTE Ludovic TRIATHLON CLUB TORCY 02:55:11 VE M 122 00:38:50 00:01:54 01:25:13 00:01:23 00:47:52 M
0246 388 HAINAUT Sébastien 02:55:27 SE M 108 00:37:05 00:03:40 01:28:38 00:02:15 00:43:52 M
0247 251 DEWAULLE Christophe TEAM TRIATHLON MAUBEUGE 02:55:44 SE M 109 00:37:44 00:02:15 01:27:27 00:01:57 00:46:23 M
0248 8 RICA Emmanuelle CLUB DES NAGEURS DE PARIS 02:55:53 SE F 7 00:28:28 00:01:06 01:28:53 00:01:38 00:55:50 M
0249 32 GALMICHE Flore TRIATHLON CLUB TORCY 02:55:57 SE F 8 00:35:04 00:01:42 01:27:02 00:00:57 00:51:14 M
0250 39 DANIEL Aline 02:55:59 VE F 8 00:30:25 00:01:55 01:34:32 00:01:02 00:48:06 M
0251 77 LOUILLET Stéphane CA FOURMIES 02:56:03 VE M 123 00:31:45 00:02:08 01:31:27 00:01:15 00:49:29 M
0252 169 PILLE Christophe LILLE TRIATHLON 02:56:29 SE M 110 00:31:31 00:01:57 01:27:44 00:01:48 00:53:31 M
0253 302 ROUSSEY Cedric TRIATHLON CLUB TORCY 02:56:37 VE M 124 00:38:02 00:01:40 01:27:42 00:01:01 00:48:13 M
0254 370 JUNGERS Jean Michel 02:57:08 VE M 125 00:38:24 00:02:41 01:31:07 00:01:24 00:43:33 M
0255 292 SERRE Elie TRIATHLON CLUB TORCY 02:57:17 SE M 111 00:31:00 00:01:47 01:25:53 00:01:34 00:57:05 M
0256 369 AUBOIN Loic 02:57:25 SE M 112 00:32:03 00:02:11 01:31:02 00:01:11 00:51:00 M
0257 14 FERNANDEZ DE LEZEA Amagoia ENTENTE SPORTIVE NANTERRE 02:57:46 SE F 9 00:28:43 00:01:24 01:35:28 00:01:08 00:51:05 M
0258 130 CAUET Patrice EPERNAY TRIATHLON PAYS DE CHAMPAGNE 02:57:47 VE M 126 00:34:08 00:03:47 01:28:06 00:02:06 00:49:41 M
0259 386 SCOURION Laurent 02:58:17 SE M 113 00:31:22 00:05:04 01:31:01 00:01:53 00:49:00 M
0260 237 BASTIEN Jean-Luc SHARKS TRIATHLON 02:58:20 VE M 127 00:36:48 00:03:02 01:27:00 00:01:55 00:49:37 M
0261 371 SALENGRO Stephane 02:58:26 VE M 128 00:33:40 00:03:25 01:31:18 00:02:23 00:47:41 M
0262 285 CHAUSSEY Jean Christophe TRIATHLON CLUB TORCY 02:59:01 VE M 129 00:31:30 00:02:35 01:29:50 00:01:04 00:54:04 M
0263 227 BERNARD Francis RTT4C 02:59:11 VE M 130 00:34:29 00:02:38 01:30:51 00:01:00 00:50:15 M
0264 35 VANO Amelie WASQUEHAL TRIATHLON 02:59:15 SE F 10 00:31:47 00:01:18 01:32:11 00:00:53 00:53:08 M
0265 22 HACHET Annick PASTEL TRIATHLON 02:59:36 VE F 9 00:36:43 00:01:28 01:28:33 00:01:36 00:51:18 M
0266 356 VERZEAUX Antoine 02:59:41 VE M 131 00:34:45 00:01:42 01:29:55 00:02:00 00:51:20 M
0267 116 BAILLET Laurent COMPIEGNE TRIATHLON 02:59:50 VE M 132 00:38:01 00:03:17 01:24:01 00:01:54 00:52:39 M
0268 224 VRIET Philippe REIMS TRIATHLON 02:59:59 VE M 133 00:33:05 00:03:49 01:28:28 00:02:38 00:52:00 M
0269 358 CHEMSI Jaoid 03:00:02 SE M 114 00:40:51 00:02:40 01:28:14 00:01:45 00:46:33 M
0270 389 BLOT Victor 03:00:04 SE M 115 00:34:54 00:03:30 01:35:24 00:02:29 00:43:50 M
0271 258 LOPES Manuel TOBESPORT 03:00:05 VE M 134 00:45:23 00:02:20 01:27:16 00:01:41 00:43:27 M
0272 182 FAU Pierre MEUDON TRIATHLON 03:00:15 VE M 135 00:33:24 00:04:49 01:30:44 00:02:26 00:48:55 M
0273 355 LEFEBVRE David 03:00:35 VE M 136 00:37:08 00:02:47 01:31:44 00:01:50 00:47:09 M
0274 340 ROSSIGNOL Didier 03:00:37 VE M 137 00:39:28 00:01:30 01:31:49 00:01:20 00:46:32 M
0275 27 LEMAIRE Dominique SHARKS TRIATHLON 03:00:38 VE F 10 00:35:39 00:01:52 01:29:16 00:00:54 00:53:00 M
0276 352 MARCHAND André 03:01:03 VE M 138 00:41:25 00:03:25 01:25:07 00:02:28 00:48:41 M
0277 161 CONTRI Alexandre LA BRIE FRANCILIENNE TRIATHLON 03:01:03 VE M 139 00:33:50 00:01:49 01:29:43 00:01:09 00:54:34 M
0278 343 JOVENIAUX Laurent 03:01:03 VE M 140 00:40:07 00:02:19 01:24:25 00:00:36 00:53:38 M
0279 304 GASSER Frederic TRIATHLON CLUB TORCY 03:01:12 VE M 141 00:32:29 00:03:07 01:28:00 00:01:47 00:55:51 M
0280 84 LYON Francois CHANTILLY TRIATHLON 03:01:18 VE M 142 00:43:36 00:03:36 01:27:28 00:01:16 00:45:24 M
0281 30 DEWAELE Océane TRIATHLON CLUB TORCY 03:01:24 SE F 11 00:34:34 00:01:51 01:30:51 00:00:56 00:53:15 M
0282 342 BUSTIN Francois 03:01:28 SE M 116 00:39:57 00:04:21 01:27:04 00:02:09 00:47:58 M
0283 58 LAVIN Loic ASTRE CREILLOIS 03:02:00 VE M 143 00:42:22 00:01:53 01:26:00 00:01:05 00:50:43 M
0284 319 LAHOUSTE Bérenger US HAM TRIATHLON 03:02:09 SE M 117 00:39:25 00:00:50 01:31:43 00:00:53 00:49:21 M
0285 396 BILLET Antoine 03:02:26 SE M 118 00:35:45 00:01:36 01:34:58 00:00:51 00:49:18 M
0286 189 BOUCHERIT Mehamed MEUDON TRIATHLON 03:02:44 VE M 144 00:38:18 00:02:38 01:28:32 00:01:53 00:51:25 M
0287 311 BISSON Michel TSR78 03:03:13 VE M 145 00:31:39 00:01:28 01:29:34 00:01:43 00:58:50 M
0288 37 RICARD Marthe 03:04:01 VE F 11 00:40:15 00:02:05 01:28:38 00:01:58 00:51:08 M
0289 65 JORELLE Jacky BEAUVAIS TRIATHLON 03:04:10 VE M 146 00:38:29 00:01:41 01:31:06 00:01:59 00:50:58 M
0290 354 GOUILLOUX Hervé 03:04:57 VE M 147 00:37:32 00:02:25 01:34:55 00:01:07 00:49:01 M
0291 378 BOULINGUEZ Maxime 03:05:07 SE M 119 00:33:51 00:02:42 01:35:43 00:01:47 00:51:05 M
0292 372 BERGERO Xavier 03:05:15 VE M 148 00:42:09 00:02:24 01:27:27 00:01:39 00:51:38 M
0293 29 ZIMMERMANN Mylene TRIATHLON CLUB TORCY 03:05:20 VE F 12 00:34:24 00:01:50 01:34:21 00:00:59 00:53:47 M
0294 347 PILORGE Sébastien 03:05:38 VE M 149 00:32:10 00:04:04 01:40:01 00:01:43 00:47:42 M
0295 163 ALFONSETTI Claude LES TRITONS MELDOIS 03:05:55 SE M 120 00:32:51 00:01:18 01:33:05 00:01:06 00:57:38 M
0296 167 PERALES Gerard LES TRITONS MELDOIS 03:05:55 VE M 150 00:35:50 00:02:30 01:29:14 00:00:43 00:57:40 M
0297 18 ROUSSE Emilie LA BRIE FRANCILIENNE TRIATHLON 03:05:55 SE F 12 00:34:08 00:02:41 01:40:17 00:00:46 00:48:05 M
0298 245 LEGALLAIS Pascal TEAM SEDAN TRIATHLON 03:06:02 VE M 151 00:31:26 00:02:26 01:31:11 00:01:52 00:59:09 M
0299 308 DIEME Offansou TRIATHLON CLUB TORCY 03:07:13 SE M 121 00:39:19 00:02:27 01:38:45 00:01:15 00:45:29 M
0300 31 JACTAT Priscillia TRIATHLON CLUB TORCY 03:07:15 SE F 13 00:34:05 00:01:38 01:31:04 00:01:12 00:59:18 M
0301 40 LETHELLIEZ Aurore 03:08:40 SE F 14 00:31:43 00:04:24 01:39:33 00:01:13 00:51:50 M
0302 44 LEANDRI Yann AMIENS TRIATHLON 03:09:00 VE M 152 00:36:32 00:02:05 01:32:20 00:01:41 00:56:24 M
0303 136 AUBRY Luc EPERNAY TRIATHLON PAYS DE CHAMPAGNE 03:10:08 VE M 153 00:34:50 00:03:49 01:35:28 00:01:57 00:54:07 M
0304 19 BOUHET Laurence LA BRIE FRANCILIENNE TRIATHLON 03:10:19 VE F 13 00:36:01 00:01:32 01:33:51 00:01:00 00:57:57 M
0305 373 BOURGHELLE Matthieu 03:10:21 SE M 122 00:37:09 00:03:01 01:37:55 00:01:11 00:51:07 M
0306 387 VARNOTEAUX Cédric 03:10:39 SE M 123 00:37:29 00:06:55 01:39:56 00:02:52 00:43:30 M
0307 363 MIOT Nicolas 03:11:44 VE M 154 00:35:49 00:02:33 01:32:37 00:01:18 00:59:29 M
0308 282 LAGIER Eric TRIATHLON CLUB DE VILLEPARISIS 03:12:40 VE M 155 00:32:16 00:03:39 01:38:58 00:01:44 00:56:05 M
0309 28 MIRANDA Sylvie TOS TRIATHLON 03:13:00 VE F 14 00:38:01 00:02:12 01:39:42 00:01:37 00:51:31 M
0310 348 LASCAUX Pierre 03:13:05 SE M 124 00:35:04 00:02:47 01:32:22 00:01:51 01:01:02 M
0311 145 COSTE Philippe HALLUIN TRIATHLON 03:13:23 VE M 156 00:38:00 00:04:03 01:37:00 00:02:11 00:52:11 M
0312 267 SUREAU Isabelle TOS TRIATHLON 03:13:58 VE F 15 00:43:45 00:01:38 01:32:30 00:01:01 00:55:06 M
0313 390 POCHON Guillaume 03:14:06 VE M 157 00:34:12 00:03:39 01:33:22 00:03:57 00:58:58 M
0314 375 OGER François 03:14:41 VE M 158 00:40:52 00:03:12 01:32:55 00:02:04 00:55:40 M
0315 351 MASCASES Rudy 03:14:42 SE M 125 00:35:20 00:03:06 01:38:01 00:01:32 00:56:45 M
0316 6 LUDWICZAK Sophie CAMBRAI TRIATHLON 03:15:17 VE F 16 00:30:43 00:01:55 01:31:22 00:00:55 01:10:24 M
0317 197 CHOURAQUI Sebastien MONTFORT MERE TRIATHLON 03:15:22 VE M 159 00:38:36 00:02:18 01:34:40 00:01:27 00:58:24 M
0318 80 LUDWICZAK Jerome CAMBRAI TRIATHLON 03:15:52 SE M 126 00:37:04 00:02:50 01:37:26 00:01:52 00:56:41 M
0319 380 CHAMPION Jean-Baptiste 03:16:42 SE M 127 00:49:33 00:04:18 01:32:48 00:01:11 00:48:53 M
0320 115 MAURIANGE Renaud COMPIEGNE TRIATHLON 03:16:54 VE M 160 00:37:26 00:02:32 01:31:54 00:02:02 01:03:03 M
0321 93 SIMONUTTI Manuel CLUB DES NAGEURS DE PARIS 03:17:18 VE M 161 00:36:34 00:02:36 01:38:06 00:01:35 00:58:29 M
0322 362 JARDEZ Axel 03:17:45 VE M 162 00:43:05 00:03:16 01:36:22 00:01:23 00:53:41 M
0323 147 STEPHAN Laurent KRONOS TRIATHLON 03:19:55 VE M 163 00:34:53 00:02:50 01:33:59 00:00:56 01:07:19 M
0324 66 BAUWENS Joel BEAUVAIS TRIATHLON 03:20:08 VE M 164 00:37:23 00:02:03 01:37:37 00:01:26 01:01:41 M
0325 350 DEBRABANDER Xavier 03:20:13 VE M 165 00:38:33 00:02:54 01:38:26 00:02:07 00:58:15 M
0326 365 BOYER Fabien 03:21:37 SE M 128 00:39:21 00:03:29 01:37:23 00:01:48 00:59:39 M
0327 26 TORREKENS Isabelle SHARKS TRIATHLON 03:21:55 VE F 17 00:34:30 00:01:20 01:55:27 00:01:10 00:49:29 M
0328 187 AMMERICH Marc MEUDON TRIATHLON 03:24:03 VE M 166 00:36:07 00:04:23 01:39:31 00:03:21 01:00:42 M
0329 16 LAVERGNE Sylvie LA BRIE FRANCILIENNE TRIATHLON 03:26:33 VE F 18 00:34:31 00:03:07 01:47:02 00:01:46 01:00:08 M
0330 346 SABBOURI Walim 03:26:41 SE M 129 00:38:06 00:02:55 01:48:24 00:01:48 00:55:31 M
0331 5 MINGAM Isabelle BEAUVAIS TRIATHLON 03:27:10 VE F 19 00:32:07 00:01:25 01:49:05 00:01:24 01:03:11 M
0332 225 DELBERT Jean Paul ROYAL TRIATHLON LILLE 03:28:26 VE M 167 00:34:38 00:02:26 01:43:01 00:02:01 01:06:22 M
0333 364 SAUVEAUX Guillaume 03:29:00 SE M 130 00:51:02 00:01:56 01:41:19 00:00:00 00:00:00 M
0334 33 CORTINHAL Sylvie TRIATHLON CLUB TORCY 03:31:29 SE F 15 00:38:06 00:01:59 01:48:26 00:01:09 01:01:51 M
0335 10 SCHRAMME Birgit CLUB DES NAGEURS DE PARIS 03:36:01 VE F 20 00:37:53 00:03:31 01:50:58 00:01:37 01:02:04 M
DNF 248 ALLART Julien AMIENS TRIATHLON 00:00:00 SE M 0 00:23:43 00:00:58 00:00:00 00:00:00 00:00:00 M
DNF 328 MARIN Nicolas VALENCIENNES TRIATHLON 00:00:00 SE M 0 00:25:32 00:01:12 00:00:00 00:00:00 00:00:00 M
DNF 211 DELANNOY Xavier RACING CLUB ARRAS TRIATHLON 00:00:00 SE M 0 00:29:04 00:01:07 00:00:00 00:00:00 00:00:00 M
DNF 135 LEVAIRE Frederic EPERNAY TRIATHLON PAYS DE CHAMPAGNE 00:00:00 VE M 0 00:29:39 00:01:48 00:00:00 00:00:00 00:00:00 M
DNF 120 LE MAOUT Olivier COURBEVOIE TRIATHLON 00:00:00 VE M 0 00:30:15 00:01:19 00:00:00 00:00:00 00:00:00 M
DNF 15 PETIT Aurelie HET 00:00:00 SE F 0 00:32:44 00:02:15 00:00:00 00:00:00 00:00:00 M
DNF 344 FOURNIER Simon 00:00:00 SE M 0 00:33:20 00:03:37 00:00:00 00:00:00 00:00:00 M
DNF 213 JANSON Loïc REIMS METROPOLE TRIATHLON 00:00:00 VE M 0 00:26:22 00:01:06 01:13:02 00:00:46 00:00:00 M
DNF 95 HUBAUT Thierry CLUB DES NAGEURS DE PARIS 00:00:00 VE M 0 00:28:18 00:01:58 01:14:43 00:01:09 00:00:00 M
DNF 313 RINGOT Guillaume TWFL 00:00:00 SE M 0 00:26:27 00:01:53 01:37:24 00:00:00 00:00:00 M
DNF 56 SOISSONS Luc ASTRE CREILLOIS 00:00:00 VE M 0 00:36:01 00:01:39 01:43:18 00:00:00 00:00:00 M
DNF 384 CHEVALIER Jean-Christophe 00:00:00 VE M 0 00:38:44 00:05:23 01:53:45 00:00:00 00:00:00 M
DNS 9 RAPEGNO Noemie CLUB DES NAGEURS DE PARIS 00:00:00 SE F 0 00:00:00 00:00:00 00:00:00 00:00:00 00:00:00 M
DNS 11 ABRANTES Amelie CLUB DES NAGEURS DE PARIS 00:00:00 SE F 0 00:00:00 00:00:00 00:00:00 00:00:00 00:00:00 M
DNS 12 SAHIN Sevin CLUB DES NAGEURS DE PARIS 00:00:00 SE F 0 00:00:00 00:00:00 00:00:00 00:00:00 00:00:00 M
DNS 43 KIEFER David AMIENS TRIATHLON 00:00:00 VE M 0 00:00:00 00:00:00 00:00:00 00:00:00 00:00:00 M
DNS 45 LEBLANC Cyril AMIENS TRIATHLON 00:00:00 SE M 0 00:00:00 00:00:00 00:00:00 00:00:00 00:00:00 M
DNS 48 ADOURIAN Onnick ANTONY NATATION SECTION TRIATHLON 00:00:00 VE M 0 00:00:00 00:00:00 00:00:00 00:00:00 00:00:00 M
DNS 53 PENZ Sebastien ASPTT TRI D'ORLEANS 00:00:00 SE M 0 00:00:00 00:00:00 00:00:00 00:00:00 00:00:00 M
DNS 70 BRIERE Bernard BEAUVAIS TRIATHLON 00:00:00 VE M 0 00:00:00 00:00:00 00:00:00 00:00:00 00:00:00 M
DNS 71 MINGAM Laurent BEAUVAIS TRIATHLON 00:00:00 VE M 0 00:00:00 00:00:00 00:00:00 00:00:00 00:00:00 M
DNS 82 PORET Jerome CHANTILLY TRIATHLON 00:00:00 VE M 0 00:00:00 00:00:00 00:00:00 00:00:00 00:00:00 M
DNS 83 TARNIQUET Loic CHANTILLY TRIATHLON 00:00:00 SE M 0 00:00:00 00:00:00 00:00:00 00:00:00 00:00:00 M
DNS 86 NININ Rémy CHANTILLY TRIATHLON 00:00:00 SE M 0 00:00:00 00:00:00 00:00:00 00:00:00 00:00:00 M
DNS 92 CHARDIN Christophe CLUB DES NAGEURS DE PARIS 00:00:00 VE M 0 00:00:00 00:00:00 00:00:00 00:00:00 00:00:00 M
DNS 97 GUIBERT Yohann CLUB DES NAGEURS DE PARIS 00:00:00 VE M 0 00:00:00 00:00:00 00:00:00 00:00:00 00:00:00 M
DNS 101 LUCAS Philippe CLUB DES NAGEURS DE PARIS 00:00:00 VE M 0 00:00:00 00:00:00 00:00:00 00:00:00 00:00:00 M
DNS 109 HUET Philippe CLUB DES NAGEURS DE PARIS 00:00:00 VE M 0 00:00:00 00:00:00 00:00:00 00:00:00 00:00:00 M
DNS 118 GRIESMAR Pascal COURBEVOIE TRIATHLON 00:00:00 VE M 0 00:00:00 00:00:00 00:00:00 00:00:00 00:00:00 M
DNS 119 GODART Pascal COURBEVOIE TRIATHLON 00:00:00 VE M 0 00:00:00 00:00:00 00:00:00 00:00:00 00:00:00 M
DNS 128 JACQUET Stéphane DRAVEIL TRIATHLON 00:00:00 VE M 0 00:00:00 00:00:00 00:00:00 00:00:00 00:00:00 M
DNS 139 BATTEFORT Yann EPPG TRIATHLON CLUB 93 00:00:00 VE M 0 00:00:00 00:00:00 00:00:00 00:00:00 00:00:00 M
DNS 143 BRUNET Benjamin GRAVELINES TRIATHLON 00:00:00 SE M 0 00:00:00 00:00:00 00:00:00 00:00:00 00:00:00 M
DNS 146 MENNERET Regis ISSY TRIATHLON 00:00:00 VE M 0 00:00:00 00:00:00 00:00:00 00:00:00 00:00:00 M
DNS 159 LUVET Thierry LA BRIE FRANCILIENNE TRIATHLON 00:00:00 VE M 0 00:00:00 00:00:00 00:00:00 00:00:00 00:00:00 M
DNS 166 LAMIRAND David LES TRITONS MELDOIS 00:00:00 VE M 0 00:00:00 00:00:00 00:00:00 00:00:00 00:00:00 M
DNS 177 GUITTENIT Mathieu MEUDON TRIATHLON 00:00:00 SE M 0 00:00:00 00:00:00 00:00:00 00:00:00 00:00:00 M
DNS 178 LE MOIGNE Jean-François MEUDON TRIATHLON 00:00:00 VE M 0 00:00:00 00:00:00 00:00:00 00:00:00 00:00:00 M
DNS 184 ALLONGUE Philippe MEUDON TRIATHLON 00:00:00 VE M 0 00:00:00 00:00:00 00:00:00 00:00:00 00:00:00 M
DNS 185 CHAMPEIL Alexandre MEUDON TRIATHLON 00:00:00 VE M 0 00:00:00 00:00:00 00:00:00 00:00:00 00:00:00 M
DNS 186 LUTZ Pascal MEUDON TRIATHLON 00:00:00 VE M 0 00:00:00 00:00:00 00:00:00 00:00:00 00:00:00 M
DNS 199 BOULANGER Alexandre NOGENT SOLIDARITE TRIATHLON 00:00:00 SE M 0 00:00:00 00:00:00 00:00:00 00:00:00 00:00:00 M
DNS 207 BEAUDELOT Olivier PASTEL TRIATHLON 00:00:00 VE M 0 00:00:00 00:00:00 00:00:00 00:00:00 00:00:00 M
DNS 230 DURAND Patrick SC ABBEVILLE TRIATHLON 00:00:00 VE M 0 00:00:00 00:00:00 00:00:00 00:00:00 00:00:00 M
DNS 268 DAUVERGNE Olivier TRIATHLON CLUB D'ANDRESY 00:00:00 SE M 0 00:00:00 00:00:00 00:00:00 00:00:00 00:00:00 M
DNS 269 NIDO Jean TRIATHLON CLUB DE DOUAI 00:00:00 VE M 0 00:00:00 00:00:00 00:00:00 00:00:00 00:00:00 M
DNS 276 PIGEON Julien TRIATHLON CLUB DE L'OMOIS 00:00:00 SE M 0 00:00:00 00:00:00 00:00:00 00:00:00 00:00:00 M
DNS 296 LOUYS Olivier TRIATHLON CLUB TORCY 00:00:00 SE M 0 00:00:00 00:00:00 00:00:00 00:00:00 00:00:00 M
DNS 307 LEMAITRE Pierre-Alexandre TRIATHLON CLUB TORCY 00:00:00 SE M 0 00:00:00 00:00:00 00:00:00 00:00:00 00:00:00 M
DNS 320 HUET Stéphane USA LICENCE 00:00:00 VE M 0 00:00:00 00:00:00 00:00:00 00:00:00 00:00:00 M
DNS 335 BONITEAU Laurent VILLEPINTE TRIATHLON 00:00:00 VE M 0 00:00:00 00:00:00 00:00:00 00:00:00 00:00:00 M
DNS 338 DEFREYNE Jeremy WASQUEHAL TRIATHLON 00:00:00 SE M 0 00:00:00 00:00:00 00:00:00 00:00:00 00:00:00 M
DNS 341 RODRIGUEZ Jean-François 00:00:00 VE M 0 00:00:00 00:00:00 00:00:00 00:00:00 00:00:00 M
DNS 349 COHEN Eric 00:00:00 VE M 0 00:00:00 00:00:00 00:00:00 00:00:00 00:00:00 M
DNS 360 LECOQ Fabrice 00:00:00 VE M 0 00:00:00 00:00:00 00:00:00 00:00:00 00:00:00 M
DNS 400 BONNIVARD François 00:00:00 SE M 0 00:00:00 00:00:00 00:00:00 00:00:00 00:00:00 M
DSQ 254 MOISSON Jean Francois TEAM TRIATHLON MAUBEUGE 00:00:00 VE M 0 00:34:37 00:01:43 00:00:00 00:00:00 00:00:00 M
DSQ 345 HONDERMARCK Pierre 00:00:00 SE M 0 00:43:55 00:04:54 00:00:00 00:00:00 00:00:00 M
DSQ 234 REICHLING Jean-Marc SHARKS TRIATHLON 00:00:00 VE M 0 00:45:40 00:03:58 00:00:00 00:00:00 00:00:00 M
DSQ 108 BAUSSERON Guénaël CLUB DES NAGEURS DE PARIS 00:00:00 SE M 0 00:32:29 00:01:11 01:11:05 00:00:41 00:39:30 M
DSQ 96 LEVY Charles CLUB DES NAGEURS DE PARIS 00:00:00 SE M 0 00:27:53 00:00:58 01:15:58 00:00:38 00:42:58 M


M Relais
Scratch Nom Prénom Club Temps Cat. Clt. Cat. Nat. #1 Vélo #2 CaP ... Course
0001 332 VALENCIENNES TRIATHLON . VALENCIENNES TRIATHLON 02:39:41 SE X 1 00:30:49 00:00:32 01:18:54 00:00:27 00:49:28 M Relais
0002 3 BIOUX POWER . 02:50:47 SE X 2 00:35:42 00:00:34 01:20:09 00:00:26 00:54:23 M Relais
0003 1 LES SUPERS PAPAS . 02:51:08 SE M 1 00:32:12 00:00:37 01:32:51 00:00:50 00:45:29 M Relais
0004 2 TRIATHLON CLUB DE VILLEPARISIS . TRIATHLON CLUB DE VILLEPARISIS 03:11:43 SE X 3 00:38:56 00:00:36 01:45:15 00:00:29 00:46:58 M Relais


S
Scratch Nom Prénom Club Temps Cat. Clt. Cat. Nat. #1 Vélo #2 CaP ... Course
0001 1160 BROCHET Pierric REIMS TRIATHLON 01:01:36 SE M 1 00:12:55 00:00:44 00:30:43 00:00:28 00:16:47 S
0002 1140 BAILLY Aurelien LES TRITONS MELDOIS 01:02:18 JU M 1 00:13:04 00:00:49 00:31:42 00:00:31 00:16:14 S
0003 1156 FUCHO Mateo REIMS METROPOLE TRIATHLON 01:02:27 CA M 1 00:12:50 00:00:52 00:31:57 00:00:34 00:16:16 S
0004 1083 CHORON Jérémy ASTRE CREILLOIS 01:02:39 SE M 2 00:13:19 00:00:49 00:31:21 00:00:30 00:16:43 S
0005 1128 PASCAL Adrien EPERNAY TRIATHLON PAYS DE CHAMPAGNE 01:03:31 SE M 3 00:15:40 00:01:26 00:28:27 00:00:33 00:17:27 S
0006 1148 MAILLET Jean Christophe PASTEL TRIATHLON 01:03:37 SE M 4 00:14:27 00:00:37 00:31:28 00:00:36 00:16:32 S
0007 1102 MALTHERE Maxime COMPIEGNE TRIATHLON 01:03:51 CA M 2 00:12:26 00:00:37 00:32:28 00:00:29 00:17:53 S
0008 1153 FREJAFOND Clément REIMS METROPOLE TRIATHLON 01:04:56 CA M 3 00:14:08 00:00:47 00:32:30 00:00:34 00:17:00 S
0009 1082 TÊTU Thomas AMIENS TRIATHLON 01:05:17 SE M 5 00:12:47 00:01:32 00:32:09 00:00:41 00:18:10 S
0010 1158 PAQUIS Marc REIMS TRIATHLON 01:05:25 SE M 6 00:14:23 00:01:43 00:32:08 00:00:36 00:16:37 S
0011 1167 DHU Stéphane REIMS TRIATHLON 01:05:36 VE M 1 00:14:35 00:01:07 00:31:39 00:00:39 00:17:39 S
0012 1130 MARTIN Samuel KRONOS TRIATHLON 01:05:38 SE M 7 00:14:15 00:01:00 00:32:48 00:00:41 00:16:55 S
0013 1162 BUSSON Florian REIMS TRIATHLON 01:06:14 SE M 8 00:14:28 00:01:07 00:31:52 00:00:34 00:18:15 S
0014 1115 GIRARD Guillaume EPERNAY TRIATHLON PAYS DE CHAMPAGNE 01:06:31 VE M 2 00:14:39 00:00:54 00:32:22 00:00:49 00:17:49 S
0015 1098 ANCELLIN Baptiste COMPIEGNE TRIATHLON 01:06:32 CA M 4 00:13:50 00:00:59 00:33:29 00:00:48 00:17:28 S
0016 1188 VIGNAUD Lucas TRIATHLON CLUB DE L'OMOIS 01:07:06 JU M 2 00:14:49 00:00:59 00:33:46 00:00:40 00:16:54 S
0017 1154 FREJAFOND Antonin REIMS METROPOLE TRIATHLON 01:07:07 CA M 5 00:14:51 00:01:06 00:33:01 00:00:33 00:17:38 S
0018 1097 BOUHOURS Gabin COMPIEGNE TRIATHLON 01:07:07 CA M 6 00:12:27 00:00:56 00:34:15 00:00:32 00:18:59 S
0019 1193 RIGAUX Paul US HAM TRIATHLON 01:07:18 SE M 9 00:13:53 00:00:58 00:33:35 00:00:33 00:18:22 S
0020 1180 LAFORGE Davy TEAM NOYON TRIATHLON 01:07:31 VE M 3 00:14:43 00:01:04 00:32:32 00:00:33 00:18:41 S
0021 1096 SCHWALLER Benjamin COMPIEGNE TRIATHLON 01:07:57 CA M 7 00:13:22 00:00:50 00:34:47 00:00:33 00:18:28 S
0022 1133 DETANT Damien KRONOS TRIATHLON 01:08:16 SE M 10 00:14:56 00:00:55 00:33:06 00:00:39 00:18:43 S
0023 1126 MIRAMON Pierre EPERNAY TRIATHLON PAYS DE CHAMPAGNE 01:08:59 SE M 11 00:15:41 00:01:29 00:30:42 00:00:41 00:20:27 S
0024 1178 PAYEN Yann TEAM ARGON 18 France 01:09:16 VE M 4 00:16:04 00:01:11 00:32:07 00:00:39 00:19:17 S
0025 1081 DUFAY Gaetan AMIENS TRIATHLON 01:09:20 CA M 8 00:14:30 00:00:46 00:34:56 00:00:40 00:18:29 S
0026 1094 SALES Nicolas CHESSY TRIATHLON VAL D'EUROPE 01:09:34 SE M 12 00:14:06 00:00:47 00:34:39 00:00:43 00:19:21 S
0027 1118 DEMANGE Rodolphe EPERNAY TRIATHLON PAYS DE CHAMPAGNE 01:10:05 VE M 5 00:14:55 00:01:08 00:33:34 00:00:42 00:19:47 S
0028 1165 LABOURIER Jean-Philippe REIMS TRIATHLON 01:10:18 SE M 13 00:15:35 00:01:30 00:34:21 00:01:07 00:17:48 S
0029 1163 LEMARCHAND Mathieu REIMS TRIATHLON 01:10:22 SE M 14 00:14:41 00:01:17 00:34:56 00:00:53 00:18:37 S
0030 1195 LEBRUN Emmanuel VALENCIENNES TRIATHLON 01:10:45 VE M 6 00:18:02 00:01:30 00:33:00 00:00:56 00:17:18 S
0031 1104 HUSSON Christophe COMPIEGNE TRIATHLON 01:11:12 VE M 7 00:15:39 00:01:24 00:33:44 00:00:36 00:19:51 S
0032 1135 MAROUZÉ Simon KRONOS TRIATHLON 01:11:13 SE M 15 00:14:29 00:01:03 00:34:31 00:00:50 00:20:22 S
0033 1116 VINOT Franck EPERNAY TRIATHLON PAYS DE CHAMPAGNE 01:11:15 VE M 8 00:16:50 00:00:58 00:32:51 00:00:51 00:19:46 S
0034 1146 DUBOIS Hugo PASTEL TRIATHLON 01:11:36 JU M 3 00:16:48 00:00:42 00:35:27 00:00:33 00:18:07 S
0035 1039 GLAUNEC Nicolas LEMAN TRIATHLON CLUB 01:11:46 SE M 16 00:16:02 00:01:24 00:34:54 00:00:44 00:18:44 S
0036 1107 DEBUS Thomas CTA 01:11:53 JU M 4 00:16:16 00:00:58 00:33:31 00:00:35 00:20:35 S
0037 1022 PEREIRA Emilie COMPIEGNE TRIATHLON 01:12:01 CA F 1 00:13:24 00:00:57 00:36:54 00:00:37 00:20:11 S
0038 1084 MULLER Remy ASTRE CREILLOIS 01:12:28 CA M 9 00:16:03 00:01:17 00:35:44 00:00:43 00:18:43 S
0039 1205 DECAUX Louis 01:12:46 CA M 10 00:15:32 00:01:31 00:35:15 00:01:16 00:19:14 S
0040 1256 GONTIER Adrien 01:12:55 SE M 17 00:16:58 00:03:41 00:32:09 00:01:34 00:18:34 S
0041 1257 GOSSIER David 01:12:58 VE M 9 00:15:03 00:01:04 00:34:34 00:01:49 00:20:30 S
0042 1101 LE GALLIOT Jean-Baptiste COMPIEGNE TRIATHLON 01:13:16 SE M 18 00:18:01 00:02:18 00:32:58 00:00:50 00:19:11 S
0043 1136 DASZKIEWICZ Cyril KRONOS TRIATHLON 01:13:34 VE M 10 00:17:04 00:01:06 00:33:42 00:00:51 00:20:53 S
0044 1229 BRISSON Raynald 01:14:00 VE M 11 00:18:56 00:01:58 00:32:20 00:01:23 00:19:24 S
0045 1119 GUILLOCHAIN Olivier EPERNAY TRIATHLON PAYS DE CHAMPAGNE 01:14:02 VE M 12 00:15:13 00:01:51 00:35:52 00:01:17 00:19:50 S
0046 1155 BONHOMME Geoffrey REIMS METROPOLE TRIATHLON 01:14:04 SE M 19 00:16:08 00:01:30 00:36:49 00:00:53 00:18:47 S
0047 1174 DEBART Antoine SMAC TRIATHLON 01:14:07 SE M 20 00:17:08 00:01:14 00:35:38 00:01:14 00:18:56 S
0048 1179 LANGLET Rémy TEAM NOYON TRIATHLON 01:14:40 SE M 21 00:14:07 00:01:27 00:37:00 00:00:39 00:21:28 S
0049 1239 ASSELBOURG Benjamin 01:14:48 SE M 22 00:17:58 00:02:07 00:35:21 00:00:47 00:18:37 S
0050 1241 LEFEVRE Sebastien 01:15:23 SE M 23 00:18:38 00:01:57 00:34:50 00:01:02 00:18:58 S
0051 1217 CHAUDRON Yohann 01:15:24 VE M 13 00:14:25 00:01:36 00:35:35 00:00:59 00:22:52 S
0052 1080 CHRETIEN Mathieu ACBREIMS 01:15:30 JU M 5 00:17:59 00:01:44 00:33:01 00:00:53 00:21:56 S
0053 1182 LE REST Guillaume TOS TRIATHLON 01:15:31 SE M 24 00:15:10 00:01:11 00:37:46 00:00:48 00:20:38 S
0054 1054 BROUZE Philippine US PALAISEAU TRIATHLON 01:15:47 JU F 1 00:15:33 00:38:20 00:00:00 00:00:00 00:21:18 S
0055 1127 CHARPENTIER Benoit EPERNAY TRIATHLON PAYS DE CHAMPAGNE 01:15:55 VE M 14 00:17:56 00:01:21 00:35:48 00:01:11 00:19:41 S
0056 1120 DAVID Julien EPERNAY TRIATHLON PAYS DE CHAMPAGNE 01:16:22 SE M 25 00:14:47 00:01:42 00:38:05 00:01:10 00:20:40 S
0057 1184 GRUET Dany TOS TRIATHLON 01:16:47 VE M 15 00:14:38 00:01:24 00:37:08 00:01:28 00:22:10 S
0058 1171 CHARRIEAU Benoit SHARKS TRIATHLON 01:17:07 SE M 26 00:17:58 00:01:47 00:37:15 00:01:11 00:18:57 S
0059 1077 SOGNY Jessia 01:17:16 SE F 1 00:18:57 00:01:50 00:35:38 00:00:48 00:20:05 S
0060 1110 PLANÇON Jean-Noel EPERNAY TRIATHLON PAYS DE CHAMPAGNE 01:17:16 VE M 16 00:18:36 00:02:03 00:35:23 00:00:50 00:20:27 S
0061 1108 MOREAU Yvan EPERNAY TRIATHLON PAYS DE CHAMPAGNE 01:17:17 VE M 17 00:14:33 00:01:13 00:39:35 00:00:51 00:21:08 S
0062 1137 MAROUZE Philippe KRONOS TRIATHLON 01:17:31 VE M 18 00:15:01 00:01:14 00:37:13 00:00:27 00:23:36 S
0063 1259 LUCAK Corentin 01:17:42 JU M 6 00:18:05 00:02:05 00:37:26 00:00:43 00:19:26 S
0064 1141 LEGRAND Sébastien LES TRITONS MELDOIS 01:17:44 CA M 11 00:16:40 00:01:14 00:38:26 00:00:37 00:20:49 S
0065 1041 BALTAZART Lucie REIMS TRIATHLON 01:18:14 SE F 2 00:15:54 00:03:06 00:39:59 00:00:42 00:18:35 S
0066 1183 REIMEL Luc TOS TRIATHLON 01:18:26 VE M 19 00:19:11 00:01:54 00:36:52 00:01:12 00:19:18 S
0067 1157 ETRINGER Sylvain REIMS TRIATHLON 01:18:28 VE M 20 00:16:28 00:01:32 00:38:47 00:00:55 00:20:48 S
0068 1170 COLLIN Fabrice SEZANNE TRIATHLON 01:18:35 VE M 21 00:18:27 00:02:31 00:36:41 00:01:17 00:19:41 S
0069 1086 DEMAIN Aurélien ATHLETIC CLUB MARCQUOIS 01:18:43 SE M 27 00:16:33 00:02:16 00:39:04 00:01:08 00:19:44 S
0070 1145 FOUCHER Benoit OZOIR VSOP TRIATHLON 01:19:00 VE M 22 00:20:35 00:02:01 00:36:28 00:00:39 00:19:20 S
0071 1106 LESAGE Jean-Luc CTA 01:19:13 VE M 23 00:19:41 00:01:04 00:37:20 00:00:58 00:20:12 S
0072 1151 MASSON Christophe PASTELTRI RETZBIKECLUB 01:19:17 VE M 24 00:22:40 00:01:38 00:34:08 00:00:37 00:20:17 S
0073 1185 MORIN Sylvain TOS TRIATHLON 01:19:20 SE M 28 00:15:19 00:01:53 00:39:25 00:01:23 00:21:23 S
0074 1125 ARVOIS David EPERNAY TRIATHLON PAYS DE CHAMPAGNE 01:19:40 VE M 25 00:19:08 00:01:54 00:36:42 00:01:03 00:20:55 S
0075 1194 BEAUMONT Pascal US HAM TRIATHLON 01:19:47 VE M 26 00:20:25 00:02:23 00:36:12 00:00:55 00:19:54 S
0076 1114 FRANQUET Laurent EPERNAY TRIATHLON PAYS DE CHAMPAGNE 01:20:05 VE M 27 00:20:16 00:02:16 00:35:03 00:01:10 00:21:22 S
0077 1088 DEZ Jerome CAMBRAI TRIATHLON 01:20:14 VE M 28 00:18:08 00:01:40 00:38:46 00:00:58 00:20:45 S
0078 1258 LUCAK Hervé 01:20:17 VE M 29 00:20:18 00:02:50 00:36:48 00:01:29 00:18:54 S
0079 1175 JACQUES Adrien SMAC TRIATHLON 01:20:22 SE M 29 00:21:41 00:01:32 00:34:47 00:00:55 00:21:29 S
0080 1027 THIBAULT BELET Bérengère EPERNAY TRIATHLON PAYS DE CHAMPAGNE 01:20:28 SE F 3 00:15:10 00:43:12 00:00:00 00:00:00 00:21:23 S
0081 1093 DURIEUX Matthieu CHESSY TRIATHLON VAL D'EUROPE 01:20:30 SE M 30 00:15:33 00:01:51 00:39:15 00:01:09 00:22:43 S
0082 1237 RUBARBE Romain 01:20:44 SE M 31 00:18:20 00:02:35 00:36:33 00:01:26 00:21:51 S
0083 1048 ROCHER Sébastien TOS TRIATHLON 01:20:52 SE M 32 00:19:00 00:01:44 00:37:45 00:00:51 00:21:34 S
0084 1245 PIZZO Christophe 01:20:56 VE M 30 00:19:11 00:02:14 00:37:41 00:00:50 00:21:01 S
0085 1255 ESPOSITO Thomas 01:20:57 SE M 33 00:16:59 00:01:59 00:40:29 00:00:32 00:21:00 S
0086 1176 BELKACEME Djamel SMAC TRIATHLON 01:21:08 SE M 34 00:20:01 00:03:02 00:35:14 00:01:28 00:21:26 S
0087 1265 VEDANI Thibaut 01:21:11 SE M 35 00:15:35 00:02:14 00:39:40 00:01:07 00:22:37 S
0088 1036 LECREUX Nathalie PASTEL TRIATHLON 01:21:25 VE F 1 00:18:12 00:01:29 00:38:24 00:00:52 00:22:30 S
0089 1168 DUVAL Gregory REIMS TRIATHLON 01:21:37 SE M 36 00:19:32 00:01:46 00:37:54 00:00:43 00:21:43 S
0090 1172 DEVALLEE Claudy SHARKS TRIATHLON 01:22:00 SE M 37 00:17:28 00:02:03 00:38:37 00:01:32 00:22:23 S
0091 1267 HAVART Corentin 01:22:02 SE M 38 00:14:54 00:01:57 00:41:04 00:01:00 00:23:09 S
0092 1208 GONTIER Julien 01:22:06 SE M 39 00:16:13 00:02:56 00:38:53 00:02:00 00:22:06 S
0093 1234 GAMELON Thomas 01:22:19 SE M 40 00:16:45 00:01:46 00:40:22 00:01:48 00:21:41 S
0094 1210 MARIN Arnaud 01:22:19 VE M 31 00:16:44 00:02:07 00:40:06 00:01:21 00:22:03 S
0095 1260 ROGNIER Thomas 01:22:30 VE M 32 00:19:18 00:02:00 00:37:21 00:01:19 00:22:34 S
0096 1055 DEMARQUET-RUEF Cecile VALENCIENNES TRIATHLON 01:22:30 VE F 2 00:17:35 00:02:02 00:41:04 00:01:11 00:20:40 S
0097 1067 PINHEIRO Ambre 01:22:33 SE F 4 00:18:10 00:00:59 00:40:09 00:00:35 00:22:42 S
0098 1117 CERIANI Michael EPERNAY TRIATHLON PAYS DE CHAMPAGNE 01:22:34 SE M 41 00:15:31 00:02:31 00:40:17 00:00:58 00:23:18 S
0099 1177 HENRAT Christophe STADE FRANCAIS TRIATHLON 01:22:45 VE M 33 00:16:32 00:01:47 00:39:47 00:00:59 00:23:42 S
0100 1227 PILLOUD Yohan 01:22:53 SE M 42 00:20:24 00:04:08 00:36:37 00:01:28 00:20:17 S
0101 1189 MEUNIER François TRIATHLON CLUB TORCY 01:22:59 VE M 34 00:18:30 00:02:06 00:39:57 00:01:06 00:21:21 S
0102 1129 BELLOY Gael ESFRA 01:23:12 VE M 35 00:22:27 00:02:49 00:36:14 00:01:55 00:19:49 S
0103 1196 RUEF Xavier VALENCIENNES TRIATHLON 01:23:22 VE M 36 00:17:37 00:02:36 00:39:12 00:01:57 00:22:01 S
0104 1085 GOULOIS Pierre-Damien ATHLETIC CLUB MARCQUOIS 01:23:32 SE M 43 00:18:56 00:03:18 00:41:18 00:01:32 00:18:31 S
0105 1266 ALLART Romain 01:23:51 SE M 44 00:18:55 00:01:22 00:41:17 00:01:13 00:21:06 S
0106 1231 POIRETTE Julien 01:23:53 SE M 45 00:16:48 00:02:31 00:39:35 00:01:22 00:23:40 S
0107 1124 HUBERT Yves EPERNAY TRIATHLON PAYS DE CHAMPAGNE 01:24:03 VE M 37 00:19:10 00:02:53 00:41:56 00:00:45 00:19:21 S
0108 1028 PLANÇON Caty EPERNAY TRIATHLON PAYS DE CHAMPAGNE 01:24:12 VE F 3 00:18:40 00:01:51 00:39:00 00:00:59 00:23:44 S
0109 1040 REMACLY Angélique REIMS TRIATHLON 01:24:21 SE F 5 00:19:43 00:01:44 00:41:35 00:00:32 00:20:48 S
0110 1220 LAVOINE Jerome 01:24:45 SE M 46 00:18:19 00:01:39 00:40:31 00:01:01 00:23:17 S
0111 1123 WILLOT Patrice EPERNAY TRIATHLON PAYS DE CHAMPAGNE 01:24:52 VE M 38 00:17:00 00:03:25 00:39:59 00:01:44 00:22:46 S
0112 1161 DEMOULIN Sylvain REIMS TRIATHLON 01:24:58 SE M 47 00:22:00 00:02:19 00:36:20 00:01:23 00:22:58 S
0113 1113 HARSIGNY Gérald EPERNAY TRIATHLON PAYS DE CHAMPAGNE 01:25:15 VE M 39 00:19:41 00:02:40 00:40:18 00:01:27 00:21:11 S
0114 1263 VIVOT Jean Matthieu 01:25:19 SE M 48 00:18:14 00:00:00 00:00:00 00:00:00 00:00:00 S
0115 1159 NEVEUX OUY Etienne REIMS TRIATHLON 01:25:23 CA M 12 00:19:13 00:03:20 00:40:59 00:01:20 00:20:32 S
0116 1089 CASTILLE Jacques CAMBRAI TRIATHLON 01:25:34 VE M 40 00:21:02 00:02:33 00:39:57 00:01:08 00:20:55 S
0117 1065 DE CHABOT Elodie 01:25:36 SE F 6 00:16:42 00:02:52 00:44:11 00:00:41 00:21:12 S
0118 1111 LECANTE Romain EPERNAY TRIATHLON PAYS DE CHAMPAGNE 01:25:39 SE M 49 00:16:51 00:01:26 00:46:13 00:00:50 00:20:20 S
0119 1192 LOUCHART Pierrick TWFL 01:25:42 SE M 50 00:20:14 00:02:40 00:38:58 00:01:04 00:22:48 S
0120 1050 SIMON Chloé TOS TRIATHLON 01:25:50 CA F 2 00:18:38 00:01:40 00:42:44 00:00:56 00:21:54 S
0121 1222 CARBONEL Kévin 01:26:02 SE M 51 00:17:47 00:02:50 00:39:23 00:01:31 00:24:33 S
0122 1207 GUINGEL Julien 01:26:10 SE M 52 00:16:05 00:02:18 00:40:14 00:01:11 00:26:24 S
0123 1100 PEREIRA Manuel COMPIEGNE TRIATHLON 01:26:18 VE M 41 00:17:56 00:00:51 00:46:17 00:00:41 00:20:34 S
0124 1121 PLANÇON Axel EPERNAY TRIATHLON PAYS DE CHAMPAGNE 01:26:32 CA M 13 00:20:48 00:04:00 00:36:56 00:01:45 00:23:05 S
0125 1225 ROCA Vincent 01:26:33 SE M 53 00:17:40 00:03:41 00:43:40 00:00:38 00:20:56 S
0126 1240 LESTRAT Thibaud 01:26:46 SE M 54 00:19:24 00:03:26 00:40:00 00:01:28 00:22:30 S
0127 1079 BLANCHET Didier A C VILLERS COTTERETS 01:26:49 VE M 42 00:19:19 00:02:01 00:40:44 00:01:03 00:23:43 S
0128 1190 FICHOUX Yannick TRIATHLON CLUB TORCY 01:26:56 SE M 55 00:18:41 00:01:56 00:41:30 00:01:22 00:23:30 S
0129 1219 ROCA Julien 01:27:01 SE M 56 00:20:13 00:03:12 00:41:35 00:00:40 00:21:23 S
0130 1198 FOURNIER Bertrand 01:27:05 SE M 57 00:19:50 00:03:16 00:41:57 00:00:36 00:21:27 S
0131 1203 LENGERT Eric 01:27:24 SE M 58 00:18:41 00:02:15 00:42:38 00:01:25 00:22:27 S
0132 1020 AUBERT Nathalie CHAMPAGNE TRIATHLON 01:27:34 VE F 4 00:18:03 00:01:46 00:42:07 00:01:16 00:24:24 S
0133 1103 HUSSON Martin COMPIEGNE TRIATHLON 01:27:41 CA M 14 00:15:40 00:01:53 00:48:22 00:00:56 00:20:52 S
0134 1087 DAVOINE David CA FOURMIES 01:27:45 VE M 43 00:15:46 00:01:31 00:49:42 00:00:58 00:19:50 S
0135 1131 BATONNIER Thierry KRONOS TRIATHLON 01:27:53 VE M 44 00:19:01 00:01:38 00:41:12 00:01:07 00:24:56 S
0136 1018 PINOT Laure BPC 01:28:15 VE F 5 00:18:58 00:02:27 00:42:52 00:00:55 00:23:05 S
0137 1223 SCHNEIDER Julien 01:28:15 SE M 59 00:20:06 00:04:14 00:39:35 00:01:47 00:22:35 S
0138 1211 TIEGHEM Aurelien 01:28:19 SE M 60 00:17:52 00:04:26 00:44:04 00:00:44 00:21:15 S
0139 1112 CORPART Thierry EPERNAY TRIATHLON PAYS DE CHAMPAGNE 01:28:33 VE M 45 00:22:13 00:04:18 00:38:26 00:01:30 00:22:08 S
0140 1076 BUIL Géraldine 01:28:38 SE F 7 00:17:10 00:03:02 00:45:15 00:00:43 00:22:30 S
0141 1186 MARCEL Quentin TRIATHLON CLUB DE L'OMOIS 01:28:46 SE M 61 00:19:26 00:04:02 00:41:47 00:02:32 00:21:01 S
0142 1242 FOUBERT Nicolas 01:28:51 SE M 62 00:19:24 00:02:52 00:41:53 00:00:47 00:23:57 S
0143 1268 BARBIER Nicolas SEZANNE TRIATHLON 01:29:01 SE M 63 00:16:56 00:01:08 00:48:45 00:00:57 00:21:16 S
0144 1253 VALLÉE Sébastien 01:29:04 SE M 64 00:17:37 00:03:29 00:44:16 00:00:39 00:23:04 S
0145 1026 LEFEVRE Valentine CREPY TRIATHLON 01:29:13 SE F 8 00:20:30 00:01:40 00:43:28 00:01:22 00:22:14 S
0146 1091 MARTIN Laurent CHAMPAGNE TRIATHLON 01:29:23 SE M 65 00:20:16 00:03:59 00:42:36 00:01:49 00:20:45 S
0147 1235 PELISSIER Etienne 01:29:26 SE M 66 00:19:13 00:04:03 00:42:00 00:00:56 00:23:16 S
0148 1105 COLAS Alexis CONCORDE CLUB TRIATHLON ST SAULVE 01:29:36 VE M 46 00:20:15 00:02:36 00:40:37 00:01:19 00:24:51 S
0149 1143 REGOUBY Baptiste MOTOSTAND 01:29:39 SE M 67 00:22:37 00:02:37 00:40:33 00:01:16 00:22:38 S
0150 1187 VIET Antoine TRIATHLON CLUB DE L'OMOIS 01:29:39 VE M 47 00:20:49 00:03:28 00:41:12 00:01:56 00:22:17 S
0151 1232 PLANCQ Etienne 01:29:41 VE M 48 00:18:05 00:04:27 00:41:36 00:02:00 00:23:35 S
0152 1029 PILLETTE Julie EPERNAY TRIATHLON PAYS DE CHAMPAGNE 01:29:47 SE F 9 00:20:05 00:01:26 00:43:21 00:01:32 00:23:25 S
0153 1169 BROUZE Frédéric SCA 2000 EVRY TRIATHLON 01:29:51 VE M 49 00:19:02 00:01:40 00:46:31 00:01:02 00:21:37 S
0154 1149 SAVAREUX Laurent PASTEL TRIATHLON 01:29:58 SE M 68 00:20:56 00:02:03 00:43:14 00:01:05 00:22:42 S
0155 1216 ROUSSEL Yvan 01:30:01 VE M 50 00:20:10 00:04:03 00:39:45 00:01:20 00:24:45 S
0156 1056 VILFROY Eugenie 01:30:06 SE F 10 00:19:18 00:03:14 00:43:16 00:01:05 00:23:14 S
0157 1212 HOINVILLE Marc Antoine 01:30:21 SE M 69 00:19:21 00:02:46 00:43:38 00:01:14 00:23:23 S
0158 1244 DEMEULDRE Vivien 01:30:31 SE M 70 00:19:05 00:02:36 00:46:04 00:00:56 00:21:54 S
0159 1152 DOURLENS Christophe RCN 01:30:35 VE M 51 00:16:56 00:03:38 00:43:45 00:01:55 00:24:23 S
0160 1035 AUGER Lucie PASTEL TRIATHLON 01:30:51 SE F 11 00:18:18 00:01:23 00:46:39 00:00:31 00:24:03 S
0161 1250 PASTUREL Bertrand 01:30:51 SE M 71 00:18:24 00:03:47 00:43:41 00:01:52 00:23:09 S
0162 1251 VERNIOLLE Jean Baptiste 01:30:51 VE M 52 00:26:01 00:04:08 00:35:23 00:02:14 00:23:08 S
0163 1147 BARDET Gael PASTEL TRIATHLON 01:30:52 SE M 72 00:15:38 00:02:03 00:50:52 00:00:55 00:21:25 S
0164 1064 LEFLON Aurelie 01:30:54 SE F 12 00:24:57 00:02:01 00:39:05 00:00:56 00:23:58 S
0165 1031 DELACROIX Natacha FC LAON ATHLETISME 01:30:55 SE F 13 00:24:27 00:00:00 00:00:00 00:00:00 00:20:17 S
0166 1247 BRUNEL Aurélien 01:30:56 SE M 73 00:19:20 00:03:41 00:42:17 00:02:16 00:23:24 S
0167 1202 BLAISE Alain 01:31:00 SE M 74 00:18:50 00:03:02 00:41:36 00:02:06 00:25:27 S
0168 1249 JORON Teddy 01:31:03 SE M 75 00:19:57 00:03:13 00:41:53 00:00:57 00:25:05 S
0169 1090 CHEVALIER Laurent CCPASLY 01:31:08 SE M 76 00:20:58 00:03:38 00:40:45 00:01:52 00:23:57 S
0170 1150 HENOCQUE Hugo PASTEL TRIATHLON 01:31:26 SE M 77 00:18:02 00:01:42 00:42:12 00:00:58 00:28:34 S
0171 1109 GERVAIS Michel EPERNAY TRIATHLON PAYS DE CHAMPAGNE 01:31:44 VE M 53 00:16:40 00:02:50 00:38:08 00:01:10 00:32:59 S
0172 1021 SCHWALLER Olivia COMPIEGNE TRIATHLON 01:31:47 VE F 6 00:17:26 00:01:21 00:46:14 00:01:02 00:25:45 S
0173 1032 JOUBERT Mélanie KRONOS TRIATHLON 01:31:47 VE F 7 00:18:22 00:02:23 00:45:35 00:01:03 00:24:25 S
0174 1181 DUPREZ Pierre-Alexandre TOBESPORT 01:31:48 SE M 78 00:19:19 00:04:04 00:43:10 00:01:07 00:24:10 S
0175 1063 REMAN Catherine 01:32:11 SE F 14 00:19:52 00:02:35 00:46:10 00:00:43 00:22:53 S
0176 1132 BATONNIER François KRONOS TRIATHLON 01:32:16 JU M 7 00:22:05 00:02:05 00:44:21 00:01:08 00:22:38 S
0177 1037 NAUDIN Gwenaël REIMS TRIATHLON 01:32:34 VE F 8 00:17:30 00:02:33 00:45:55 00:01:01 00:25:37 S
0178 1138 HORNOY Bruno KRONOS TRIATHLON 01:32:49 VE M 54 00:18:17 00:02:23 00:44:44 00:01:04 00:26:23 S
0179 1030 ARVOIS Laure EPERNAY TRIATHLON PAYS DE CHAMPAGNE 01:33:04 VE F 9 00:22:23 00:02:15 00:43:43 00:01:23 00:23:21 S
0180 1025 CHORON Dominique CREPY TRIATHLON 01:33:24 VE F 10 00:19:53 00:01:33 00:44:01 00:01:33 00:26:26 S
0181 1049 SIMON Alicia TOS TRIATHLON 01:33:32 SE F 15 00:19:35 00:01:54 00:45:13 00:00:55 00:25:58 S
0182 1072 PORTEJOIE Julie 01:33:47 VE F 11 00:22:32 00:03:17 00:43:49 00:00:44 00:23:26 S
0183 1254 LEBELLE Stéphane 01:33:48 VE M 55 00:16:17 00:04:15 00:44:21 00:02:34 00:26:23 S
0184 1142 RAVUT Frederic LES TRITONS MELDOIS 01:33:54 VE M 56 00:20:51 00:02:39 00:42:14 00:01:46 00:26:25 S
0185 1233 LAMBERT Michel 01:33:59 VE M 57 00:22:15 00:00:00 00:00:00 00:00:00 00:24:16 S
0186 1173 FREMONT David SIEL BLEU 01:34:03 SE M 79 00:19:47 00:03:32 00:44:24 00:01:25 00:24:58 S
0187 1045 DEPRET Clotilde SHARKS TRIATHLON 01:34:21 JU F 2 00:16:41 00:01:47 00:50:13 00:00:38 00:25:05 S
0188 1221 BRIZET Olivier 01:34:24 VE M 58 00:28:40 00:03:17 00:38:01 00:02:29 00:21:59 S
0189 1058 FRANQUET Severine 01:34:32 VE F 12 00:19:56 00:02:28 00:45:37 00:01:26 00:25:08 S
0190 1066 CARPENTIER Pauline 01:34:41 SE F 16 00:19:28 00:03:57 00:44:50 00:01:08 00:25:19 S
0191 1092 GUSTIN Cedric CHAMPAGNE TRIATHLON 01:34:47 SE M 80 00:22:16 00:03:36 00:44:02 00:02:46 00:22:08 S
0192 1213 JOUGLET Alexandre 01:34:53 SE M 81 00:20:42 00:03:41 00:43:55 00:01:39 00:24:59 S
0193 1052 DUBOIS Isabelle TRIATHLON CLUB DE L'OMOIS 01:35:01 VE F 13 00:21:45 00:03:24 00:44:58 00:00:51 00:24:05 S
0194 1023 LEGRAND Anne-Lise COSM ARCUEIL 01:35:08 SE F 17 00:21:06 00:02:06 00:46:05 00:01:25 00:24:27 S
0195 1206 GARNIER Marc 01:35:09 SE M 82 00:19:08 00:03:59 00:43:17 00:01:06 00:27:41 S
0196 1197 DUDEK Bruno XTREM CHALLENGES 01:35:10 VE M 59 00:20:57 00:03:51 00:43:05 00:01:03 00:26:15 S
0197 1074 LORREYTE Clarisse 01:35:11 SE F 18 00:20:31 00:03:14 00:47:00 00:00:46 00:23:43 S
0198 1042 MARTIN Caroline REIMS TRIATHLON 01:35:21 VE F 14 00:22:38 00:03:29 00:43:35 00:00:48 00:24:54 S
0199 1215 BOURGETON Olivier 01:35:35 SE M 83 00:22:37 00:03:28 00:45:53 00:01:03 00:22:36 S
0200 1051 LELOUP Chantal TRIATHLON CLUB DE L'OMOIS 01:35:37 VE F 15 00:22:24 00:02:28 00:42:51 00:01:54 00:26:02 S
0201 1062 CHAUMONT Karine 01:35:53 VE F 16 00:19:55 00:02:30 00:44:52 00:00:48 00:27:49 S
0202 1204 DUCROS Mathieu 01:36:00 SE M 84 00:22:42 00:02:38 00:44:48 00:01:39 00:24:14 S
0203 1226 LONGUEBRAY Benjmin 01:36:11 VE M 60 00:19:29 00:04:26 00:45:12 00:01:34 00:25:33 S
0204 1044 COLLIN Laurence SEZANNE TRIATHLON 01:36:41 VE F 17 00:21:48 00:03:11 00:43:33 00:01:27 00:26:44 S
0205 1248 POING Stephane 01:36:45 VE M 61 00:23:33 00:02:40 00:42:33 00:01:05 00:26:54 S
0206 1191 BONNEAU Gerald TRISALEVE ANNEMASSE 01:36:51 VE M 62 00:21:28 00:03:14 00:43:25 00:02:15 00:26:31 S
0207 1070 BEAUCHARD Hélène 01:36:56 SE F 19 00:20:25 00:02:20 00:48:01 00:00:54 00:25:18 S
0208 1043 RAYE Magali SAINTE GENEVIEVE TRIATHLON 01:37:00 SE F 20 00:18:19 00:02:38 00:47:37 00:00:43 00:27:45 S
0209 1139 GONZALEZ Céline REIMS TRIATHLON 01:37:00 SE F 21 00:24:35 00:02:41 00:42:48 00:01:01 00:25:57 S
0210 1016 MINGAM Anaëlle BEAUVAIS TRIATHLON 01:38:15 CA F 3 00:18:43 00:01:33 00:49:44 00:01:08 00:27:08 S
0211 1047 BARBE Magali TOS TRIATHLON 01:38:19 VE F 18 00:25:08 00:01:31 00:45:02 00:00:57 00:25:42 S
0212 1071 VASSEUR Marie-Pauline 01:38:52 SE F 22 00:21:46 00:04:23 00:45:29 00:01:17 00:26:00 S
0213 1224 POULIN Julien 01:39:02 SE M 85 00:31:33 00:04:08 00:39:23 00:02:00 00:22:01 S
0214 1236 MASEK Phil 01:39:10 VE M 63 00:19:47 00:04:37 00:48:02 00:03:10 00:23:35 S
0215 1252 LEGUAY Benoît 01:39:12 SE M 86 00:18:33 00:05:57 00:50:34 00:01:27 00:22:43 S
0216 1246 GENIBREL Patrick 01:40:12 VE M 64 00:19:45 00:04:17 00:43:28 00:02:22 00:30:21 S
0217 1017 MOLO Catherine BEAUVAIS TRIATHLON 01:40:16 VE F 19 00:22:22 00:01:54 00:47:34 00:01:25 00:27:03 S
0218 1024 POLARD Caroline CREPY TRIATHLON 01:40:48 SE F 23 00:17:40 00:02:31 00:50:12 00:01:20 00:29:07 S
0219 1214 MASCLEF Thomas 01:40:50 SE M 87 00:18:37 00:03:06 00:42:41 00:01:23 00:35:04 S
0220 1262 DELACROIX David 01:41:40 SE M 88 00:22:10 00:03:35 00:48:04 00:02:04 00:25:49 S
0221 1078 MARTINS Aude 01:42:30 VE F 20 00:23:35 00:04:00 00:49:24 00:00:44 00:24:48 S
0222 1144 BIELEN Julien MOTOSTAND 01:42:34 SE M 89 00:25:12 00:02:24 00:46:04 00:01:03 00:27:54 S
0223 1230 GAMBIER Patrick 01:43:18 VE M 65 00:22:11 00:04:27 00:47:13 00:01:00 00:28:30 S
0224 1057 PARMENTIER Coralie 01:43:23 SE F 24 00:19:50 00:02:38 00:53:39 00:00:39 00:26:40 S
0225 1073 FAUQUEUX Claire 01:43:39 SE F 25 00:22:28 00:03:45 00:52:25 00:01:07 00:23:55 S
0226 1264 MARIAGE Vincent 01:43:43 SE M 90 00:21:14 00:04:52 00:47:44 00:02:12 00:27:43 S
0227 1033 GENIBREL Brunissande LES TRITONS MELDOIS 01:43:53 SE F 26 00:19:01 00:01:49 00:52:07 00:01:57 00:29:02 S
0228 1075 MENARD Maguelone 01:44:02 SE F 27 00:19:06 00:03:19 00:55:06 00:01:18 00:25:15 S
0229 1069 FOURNAISE Laurence 01:44:22 VE F 21 00:19:26 00:05:10 00:50:37 00:01:28 00:27:43 S
0230 1015 PAUQUET Mathilde AMIENS TRIATHLON 01:47:19 SE F 28 00:20:29 00:02:29 00:50:31 00:01:55 00:31:56 S
0231 1059 LARGEN Murielle 01:50:11 VE F 22 00:20:16 00:04:14 00:54:17 00:01:00 00:30:25 S
0232 1061 LECOMTE Joséphine 01:50:37 SE F 29 00:18:25 00:04:17 00:54:45 00:01:26 00:31:47 S
0233 1068 MARLY Christine 01:51:25 VE F 23 00:27:45 00:02:12 00:50:34 00:01:20 00:29:35 S
0234 1046 GARCIAZ Aline TEAM NOYON TRIATHLON 01:51:51 VE F 24 00:27:09 00:02:22 00:46:43 00:01:31 00:34:07 S
0235 1199 ALEXIA Roland 01:54:20 VE M 66 00:20:58 00:11:55 00:49:21 00:00:48 00:31:19 S
0236 1200 MICHEL Bruno 01:54:20 VE M 67 00:27:56 00:04:56 00:47:30 00:01:53 00:32:07 S
DNF 1166 DELAGARGDE Paul REIMS TRIATHLON 00:00:00 CA M 0 00:00:00 00:00:00 00:00:00 00:00:00 00:00:00 S
DNF 1243 RUPPE Arnaud 00:00:00 SE M 0 00:27:51 00:06:23 00:00:00 00:00:00 00:00:00 S
DNF 1099 RIOCROS Florian COMPIEGNE TRIATHLON 00:00:00 SE M 0 00:15:23 00:00:49 00:25:03 00:00:00 00:00:00 S
DNF 1238 LEGROUX Geoffrey 00:00:00 SE M 0 00:18:53 00:06:56 00:43:23 00:00:00 00:00:00 S
DNF 1060 NOWAKOWSKI Delphine 00:00:00 VE F 0 00:27:42 00:04:21 01:07:34 00:00:00 00:00:00 S
DNS 1014 GERME Nathalie AMIENS TRIATHLON 00:00:00 VE F 0 00:00:00 00:00:00 00:00:00 00:00:00 00:00:00 S
DNS 1019 KOZLOWSKI Constance CAMBRAI TRIATHLON 00:00:00 JU F 0 00:00:00 00:00:00 00:00:00 00:00:00 00:00:00 S
DNS 1034 HARDY Fanny LILLE TRIATHLON 00:00:00 SE F 0 00:00:00 00:00:00 00:00:00 00:00:00 00:00:00 S
DNS 1053 GUERY Isabelle TSR78 00:00:00 VE F 0 00:00:00 00:00:00 00:00:00 00:00:00 00:00:00 S
DNS 1095 ABRANTES Christophe CLUB DES NAGEURS DE PARIS 00:00:00 VE M 0 00:00:00 00:00:00 00:00:00 00:00:00 00:00:00 S
DNS 1122 ADAM Léo EPERNAY TRIATHLON PAYS DE CHAMPAGNE 00:00:00 SE M 0 00:00:00 00:00:00 00:00:00 00:00:00 00:00:00 S
DNS 1134 CHEVIN Frederic KRONOS TRIATHLON 00:00:00 VE M 0 00:00:00 00:00:00 00:00:00 00:00:00 00:00:00 S
DNS 1164 HENRY Francis REIMS TRIATHLON 00:00:00 VE M 0 00:00:00 00:00:00 00:00:00 00:00:00 00:00:00 S
DNS 1201 LEFRANCOIS Julien 00:00:00 SE M 0 00:00:00 00:00:00 00:00:00 00:00:00 00:00:00 S
DNS 1209 DROUET Nicolas 00:00:00 SE M 0 00:00:00 00:00:00 00:00:00 00:00:00 00:00:00 S
DNS 1218 VAN ASSEL Teddy 00:00:00 SE M 0 00:00:00 00:00:00 00:00:00 00:00:00 00:00:00 S
DNS 1228 GADIOU Jérôme 00:00:00 SE M 0 00:00:00 00:00:00 00:00:00 00:00:00 00:00:00 S
DNS 1261 LECORBEILLER Simon 00:00:00 SE M 0 00:00:00 00:00:00 00:00:00 00:00:00 00:00:00 S
DSQ 1038 PRIMAULT Marion REIMS TRIATHLON 00:00:00 SE F 0 00:21:05 00:01:47 00:00:00 00:00:00 00:00:00 S


S Relais
Scratch Nom Prénom Club Temps Cat. Clt. Cat. Nat. #1 Vélo #2 CaP ... Course
0001 1005 LES TRITONS MELDOIS . LES TRITONS MELDOIS 01:06:14 SE X 1 00:15:29 00:33:38 00:00:00 00:00:00 00:16:48 S Relais
0002 1011 CULPAIN / DUHAMEL / SEVAUX . 01:07:05 SE M 1 00:12:34 00:00:29 00:35:40 00:00:27 00:17:57 S Relais
0003 1002 MANGIN / VAN VYNCKT / GRAISEAU . 01:13:26 SE M 2 00:15:12 00:35:52 00:00:00 00:00:00 00:22:00 S Relais
0004 1001 LAINE / DAVID / MARENZA . 01:14:34 SE M 3 00:12:01 00:00:28 00:43:16 00:00:23 00:18:27 S Relais
0005 1004 EPERNAY TRIATHLON 1 . EPERNAY TRIATHLON PAYS DE CHAMPAGNE 01:15:29 SE X 2 00:18:27 00:00:38 00:38:52 00:00:28 00:17:06 S Relais
0006 1003 LA TRI FAMILY . AMIENS TRIATHLON 01:16:47 SE X 3 00:16:11 00:35:31 00:00:00 00:00:00 00:24:38 S Relais
0007 1008 LES TOCARDS . TRIATHLON CLUB TORCY 01:23:08 SE X 4 00:15:24 00:43:49 00:00:00 00:00:00 00:23:29 S Relais
0008 1006 CHAMP. DE L'AUCHE . REIMS TRIATHLON 01:30:06 SE X 5 00:27:12 00:00:36 00:34:10 00:00:45 00:27:25 S Relais
0009 1007 CVH TEAM . REIMS TRIATHLON 01:30:47 SE X 6 00:16:07 00:43:51 00:00:00 00:00:00 00:30:27 S Relais
0010 1012 LES SHARKLETTES . SHARKS TRIATHLON 01:33:16 SE F 1 00:17:54 00:00:39 00:46:22 00:01:08 00:27:15 S Relais
0011 1009 SECONDI FAMILY . TRIATHLON PLESSIS ROBINSON 01:35:39 SE X 7 00:21:44 00:03:28 00:41:49 00:00:38 00:28:02 S Relais
0012 1010 CPE / VIVES . 01:46:21 SE X 8 00:30:32 00:00:36 00:45:56 00:00:30 00:28:50 S Relais
0013 1013 PONGNIAN / MANSUY / DELAUNAY . 01:59:34 SE F 2 00:23:08 00:00:57 01:11:05 00:02:52 00:21:34 S Relais